PWSweather.com
Personal Weather Stations
Station Observations
SARATOGA
Aldara Apartments, Saratoga Springs, UT 84045

Aldara ApartmentsSaratoga Springs, UT 84045

Lat: 40.384864, Lon: -111.913644

Elevation: 4531

Station Type: VantagePro 2

Latest ConditionsUpdated 6:24:04 AM MDT Saturday, Jun 25, 2016
Currently Today's Max Today's Min Today's Average
Temperature 59.5°F15.3°C 72.3°F22.4°C 59.5°F15.3°C 65.0°F18.3°C
Dew Point 31.1°F-0.5°C 44.5°F6.9°C 29.3°F-1.5°C 36.9°F2.7°C
Winds Calm Calm 17.0 mph N27.4 kmh N - 7.8 mph 12.6 kmh
Wind Gusts 4.0 mph6.4 kmh 20.0 mph32.2 kmh - -
Humidity 34% 40% 28% 35%
Pressure 29.70 in1005.8 mb 29.70 in1005.8 mb 29.53 in1000.0 mb -
Hour Temp Dew Point Humidity Winds Wind Gusts Pressure Precip Precip Rate Daily Precip Total
06:24 AM 59.5°F15.3°C 31.1°F-0.5°C 34% Calm Calm 4.0 mph6.4 kmh 29.70 in1005.8 mb 0.00 in0.0 mm 0.00 in0.0 mm 0.00 in0.0 mm
06:23 AM 59.6°F15.3°C 31.9°F-0.1°C 35% Calm Calm 2.0 mph3.2 kmh 29.70 in1005.8 mb 0.00 in0.0 mm 0.00 in0.0 mm 0.00 in0.0 mm
06:22 AM 59.6°F15.3°C 31.9°F-0.1°C 35% 2.0 mph NE3.2 kmh NE 2.0 mph3.2 kmh 29.70 in1005.8 mb 0.00 in0.0 mm 0.00 in0.0 mm 0.00 in0.0 mm
06:21 AM 59.6°F15.3°C 31.9°F-0.1°C 35% Calm Calm -- 29.70 in1005.8 mb 0.00 in0.0 mm 0.00 in0.0 mm 0.00 in0.0 mm
06:20 AM 59.6°F15.3°C 31.9°F-0.1°C 35% Calm Calm 2.0 mph3.2 kmh 29.70 in1005.8 mb 0.00 in0.0 mm 0.00 in0.0 mm 0.00 in0.0 mm
06:19 AM 59.6°F15.3°C 31.2°F-0.4°C 34% Calm Calm 4.0 mph6.4 kmh 29.70 in1005.8 mb 0.00 in0.0 mm 0.00 in0.0 mm 0.00 in0.0 mm
06:18 AM 59.6°F15.3°C 31.9°F-0.1°C 35% 1.0 mph NE1.6 kmh NE 3.0 mph4.8 kmh 29.69 in1005.4 mb 0.00 in0.0 mm 0.00 in0.0 mm 0.00 in0.0 mm
06:17 AM 59.7°F15.4°C 32.0°F0.0°C 35% Calm Calm 8.0 mph12.9 kmh 29.69 in1005.4 mb 0.00 in0.0 mm 0.00 in0.0 mm 0.00 in0.0 mm
06:16 AM 59.7°F15.4°C 32.0°F0.0°C 35% 3.0 mph NE4.8 kmh NE 8.0 mph12.9 kmh 29.69 in1005.4 mb 0.00 in0.0 mm 0.00 in0.0 mm 0.00 in0.0 mm
06:15 AM 59.7°F15.4°C 32.0°F0.0°C 35% 2.0 mph NE3.2 kmh NE 3.0 mph4.8 kmh 29.69 in1005.4 mb 0.00 in0.0 mm 0.00 in0.0 mm 0.00 in0.0 mm
06:14 AM 59.8°F15.4°C 32.1°F0.1°C 35% Calm Calm 3.0 mph4.8 kmh 29.69 in1005.4 mb 0.00 in0.0 mm 0.00 in0.0 mm 0.00 in0.0 mm
06:13 AM 59.7°F15.4°C 32.0°F0.0°C 35% Calm Calm 4.0 mph6.4 kmh 29.69 in1005.4 mb 0.00 in0.0 mm 0.00 in0.0 mm 0.00 in0.0 mm
06:12 AM 59.8°F15.4°C 32.1°F0.1°C 35% 1.0 mph NE1.6 kmh NE 7.0 mph11.3 kmh 29.69 in1005.4 mb 0.00 in0.0 mm 0.00 in0.0 mm 0.00 in0.0 mm
06:11 AM 59.8°F15.4°C 32.1°F0.1°C 35% 5.0 mph NE8.0 kmh NE 5.0 mph8.0 kmh 29.69 in1005.4 mb 0.00 in0.0 mm 0.00 in0.0 mm 0.00 in0.0 mm
06:10 AM 59.8°F15.4°C 32.1°F0.1°C 35% 2.0 mph NNE3.2 kmh NNE 6.0 mph9.7 kmh 29.69 in1005.4 mb 0.00 in0.0 mm 0.00 in0.0 mm 0.00 in0.0 mm
06:09 AM 59.8°F15.4°C 32.1°F0.1°C 35% 3.0 mph NNE4.8 kmh NNE 6.0 mph9.7 kmh 29.69 in1005.4 mb 0.00 in0.0 mm 0.00 in0.0 mm 0.00 in0.0 mm
06:08 AM 59.8°F15.4°C 32.1°F0.1°C 35% 6.0 mph N9.7 kmh N 6.0 mph9.7 kmh 29.69 in1005.4 mb 0.00 in0.0 mm 0.00 in0.0 mm 0.00 in0.0 mm
06:07 AM 59.8°F15.4°C 32.1°F0.1°C 35% 2.0 mph NNE3.2 kmh NNE 9.0 mph14.5 kmh 29.69 in1005.4 mb 0.00 in0.0 mm 0.00 in0.0 mm 0.00 in0.0 mm
06:06 AM 59.9°F15.5°C 32.2°F0.1°C 35% 8.0 mph N12.9 kmh N 11.0 mph17.7 kmh 29.69 in1005.4 mb 0.00 in0.0 mm 0.00 in0.0 mm 0.00 in0.0 mm
06:05 AM 59.9°F15.5°C 32.2°F0.1°C 35% 11.0 mph N17.7 kmh N 11.0 mph17.7 kmh 29.69 in1005.4 mb 0.00 in0.0 mm 0.00 in0.0 mm 0.00 in0.0 mm
06:04 AM 59.9°F15.5°C 32.2°F0.1°C 35% 5.0 mph NNE8.0 kmh NNE 11.0 mph17.7 kmh 29.69 in1005.4 mb 0.00 in0.0 mm 0.00 in0.0 mm 0.00 in0.0 mm
06:03 AM 60.0°F15.6°C 32.3°F0.2°C 35% 3.0 mph NE4.8 kmh NE 8.0 mph12.9 kmh 29.69 in1005.4 mb 0.00 in0.0 mm 0.00 in0.0 mm 0.00 in0.0 mm
06:02 AM 60.0°F15.6°C 32.3°F0.2°C 35% 4.0 mph N6.4 kmh N 8.0 mph12.9 kmh 29.69 in1005.4 mb 0.00 in0.0 mm 0.00 in0.0 mm 0.00 in0.0 mm
06:01 AM 60.0°F15.6°C 32.3°F0.2°C 35% 3.0 mph N4.8 kmh N 9.0 mph14.5 kmh 29.68 in1005.1 mb 0.00 in0.0 mm 0.00 in0.0 mm 0.00 in0.0 mm
06:00 AM 60.0°F15.6°C 32.3°F0.2°C 35% 9.0 mph NNE14.5 kmh NNE 9.0 mph14.5 kmh 29.68 in1005.1 mb 0.00 in0.0 mm 0.00 in0.0 mm 0.00 in0.0 mm
05:59 AM 60.1°F15.6°C 32.4°F0.2°C 35% 9.0 mph N14.5 kmh N 9.0 mph14.5 kmh 29.68 in1005.1 mb 0.00 in0.0 mm 0.00 in0.0 mm 0.00 in0.0 mm
05:58 AM 60.1°F15.6°C 32.4°F0.2°C 35% 3.0 mph N4.8 kmh N 6.0 mph9.7 kmh 29.68 in1005.1 mb 0.00 in0.0 mm 0.00 in0.0 mm 0.00 in0.0 mm
05:57 AM 60.1°F15.6°C 31.7°F-0.2°C 34% 5.0 mph N8.0 kmh N 12.0 mph19.3 kmh 29.68 in1005.1 mb 0.00 in0.0 mm 0.00 in0.0 mm 0.00 in0.0 mm
05:56 AM 60.1°F15.6°C 31.7°F-0.2°C 34% 12.0 mph N19.3 kmh N 12.0 mph19.3 kmh 29.68 in1005.1 mb 0.00 in0.0 mm 0.00 in0.0 mm 0.00 in0.0 mm
05:55 AM 60.1°F15.6°C 31.7°F-0.2°C 34% 3.0 mph NE4.8 kmh NE 9.0 mph14.5 kmh 29.68 in1005.1 mb 0.00 in0.0 mm 0.00 in0.0 mm 0.00 in0.0 mm
05:54 AM 60.2°F15.7°C 31.8°F-0.1°C 34% 4.0 mph NE6.4 kmh NE 11.0 mph17.7 kmh 29.68 in1005.1 mb 0.00 in0.0 mm 0.00 in0.0 mm 0.00 in0.0 mm
05:53 AM 60.2°F15.7°C 31.8°F-0.1°C 34% 11.0 mph N17.7 kmh N 11.0 mph17.7 kmh 29.68 in1005.1 mb 0.00 in0.0 mm 0.00 in0.0 mm 0.00 in0.0 mm
05:52 AM 60.2°F15.7°C 31.8°F-0.1°C 34% 2.0 mph NNE3.2 kmh NNE 8.0 mph12.9 kmh 29.68 in1005.1 mb 0.00 in0.0 mm 0.00 in0.0 mm 0.00 in0.0 mm
05:51 AM 60.2°F15.7°C 31.8°F-0.1°C 34% 3.0 mph NNE4.8 kmh NNE 8.0 mph12.9 kmh 29.68 in1005.1 mb 0.00 in0.0 mm 0.00 in0.0 mm 0.00 in0.0 mm
05:50 AM 60.2°F15.7°C 31.8°F-0.1°C 34% 2.0 mph N3.2 kmh N 7.0 mph11.3 kmh 29.68 in1005.1 mb 0.00 in0.0 mm 0.00 in0.0 mm 0.00 in0.0 mm
05:49 AM 60.2°F15.7°C 31.8°F-0.1°C 34% 2.0 mph NE3.2 kmh NE 8.0 mph12.9 kmh 29.68 in1005.1 mb 0.00 in0.0 mm 0.00 in0.0 mm 0.00 in0.0 mm
05:48 AM 60.2°F15.7°C 31.8°F-0.1°C 34% 6.0 mph NE9.7 kmh NE 10.0 mph16.1 kmh 29.68 in1005.1 mb 0.00 in0.0 mm 0.00 in0.0 mm 0.00 in0.0 mm
05:47 AM 60.2°F15.7°C 32.5°F0.3°C 35% 1.0 mph NE1.6 kmh NE 8.0 mph12.9 kmh 29.68 in1005.1 mb 0.00 in0.0 mm 0.00 in0.0 mm 0.00 in0.0 mm
05:46 AM 60.2°F15.7°C 32.5°F0.3°C 35% 6.0 mph NE9.7 kmh NE 8.0 mph12.9 kmh 29.68 in1005.1 mb 0.00 in0.0 mm 0.00 in0.0 mm 0.00 in0.0 mm
05:45 AM 60.3°F15.7°C 32.6°F0.3°C 35% 1.0 mph NNE1.6 kmh NNE 8.0 mph12.9 kmh 29.67 in1004.7 mb 0.00 in0.0 mm 0.00 in0.0 mm 0.00 in0.0 mm
05:44 AM 60.3°F15.7°C 32.6°F0.3°C 35% 7.0 mph NE11.3 kmh NE 11.0 mph17.7 kmh 29.68 in1005.1 mb 0.00 in0.0 mm 0.00 in0.0 mm 0.00 in0.0 mm
05:43 AM 60.3°F15.7°C 32.6°F0.3°C 35% 7.0 mph N11.3 kmh N 11.0 mph17.7 kmh 29.68 in1005.1 mb 0.00 in0.0 mm 0.00 in0.0 mm 0.00 in0.0 mm
05:42 AM 60.4°F15.8°C 32.7°F0.4°C 35% 2.0 mph N3.2 kmh N 9.0 mph14.5 kmh 29.67 in1004.7 mb 0.00 in0.0 mm 0.00 in0.0 mm 0.00 in0.0 mm
05:41 AM 60.4°F15.8°C 32.7°F0.4°C 35% 4.0 mph N6.4 kmh N 10.0 mph16.1 kmh 29.67 in1004.7 mb 0.00 in0.0 mm 0.00 in0.0 mm 0.00 in0.0 mm
05:40 AM 60.4°F15.8°C 32.7°F0.4°C 35% 10.0 mph NE16.1 kmh NE 10.0 mph16.1 kmh 29.67 in1004.7 mb 0.00 in0.0 mm 0.00 in0.0 mm 0.00 in0.0 mm
05:39 AM 60.4°F15.8°C 32.7°F0.4°C 35% 10.0 mph NE16.1 kmh NE 13.0 mph20.9 kmh 29.67 in1004.7 mb 0.00 in0.0 mm 0.00 in0.0 mm 0.00 in0.0 mm
05:38 AM 60.4°F15.8°C 31.9°F-0.1°C 34% 7.0 mph NNE11.3 kmh NNE 10.0 mph16.1 kmh 29.67 in1004.7 mb 0.00 in0.0 mm 0.00 in0.0 mm 0.00 in0.0 mm
05:37 AM 60.5°F15.8°C 32.7°F0.4°C 35% 7.0 mph NNE11.3 kmh NNE 9.0 mph14.5 kmh 29.67 in1004.7 mb 0.00 in0.0 mm 0.00 in0.0 mm 0.00 in0.0 mm
05:36 AM 60.5°F15.8°C 32.0°F0.0°C 34% 2.0 mph NNE3.2 kmh NNE 10.0 mph16.1 kmh 29.67 in1004.7 mb 0.00 in0.0 mm 0.00 in0.0 mm 0.00 in0.0 mm
05:35 AM 60.5°F15.8°C 32.0°F0.0°C 34% 4.0 mph N6.4 kmh N 11.0 mph17.7 kmh 29.67 in1004.7 mb 0.00 in0.0 mm 0.00 in0.0 mm 0.00 in0.0 mm
05:34 AM 60.6°F15.9°C 32.1°F0.1°C 34% 3.0 mph NNE4.8 kmh NNE 11.0 mph17.7 kmh 29.67 in1004.7 mb 0.00 in0.0 mm 0.00 in0.0 mm 0.00 in0.0 mm
05:33 AM 60.7°F15.9°C 32.2°F0.1°C 34% 3.0 mph NE4.8 kmh NE 13.0 mph20.9 kmh 29.67 in1004.7 mb 0.00 in0.0 mm 0.00 in0.0 mm 0.00 in0.0 mm
05:32 AM 60.7°F15.9°C 32.2°F0.1°C 34% 5.0 mph NE8.0 kmh NE 12.0 mph19.3 kmh 29.67 in1004.7 mb 0.00 in0.0 mm 0.00 in0.0 mm 0.00 in0.0 mm
05:31 AM 60.7°F15.9°C 32.2°F0.1°C 34% 10.0 mph N16.1 kmh N 12.0 mph19.3 kmh 29.67 in1004.7 mb 0.00 in0.0 mm 0.00 in0.0 mm 0.00 in0.0 mm
05:26 AM 60.8°F16.0°C 32.3°F0.2°C 34% 6.0 mph N9.7 kmh N 10.0 mph16.1 kmh 29.67 in1004.7 mb 0.00 in0.0 mm 0.00 in0.0 mm 0.00 in0.0 mm
05:25 AM 60.8°F16.0°C 31.5°F-0.3°C 33% 5.0 mph N8.0 kmh N 10.0 mph16.1 kmh 29.67 in1004.7 mb 0.00 in0.0 mm 0.00 in0.0 mm 0.00 in0.0 mm
05:24 AM 60.9°F16.1°C 31.6°F-0.2°C 33% 10.0 mph N16.1 kmh N 13.0 mph20.9 kmh 29.67 in1004.7 mb 0.00 in0.0 mm 0.00 in0.0 mm 0.00 in0.0 mm
05:23 AM 60.9°F16.1°C 31.6°F-0.2°C 33% 13.0 mph NNW20.9 kmh NNW 13.0 mph20.9 kmh 29.66 in1004.4 mb 0.00 in0.0 mm 0.00 in0.0 mm 0.00 in0.0 mm
05:22 AM 61.0°F16.1°C 31.7°F-0.2°C 33% 9.0 mph NE14.5 kmh NE 12.0 mph19.3 kmh 29.67 in1004.7 mb 0.00 in0.0 mm 0.00 in0.0 mm 0.00 in0.0 mm
05:21 AM 61.0°F16.1°C 31.7°F-0.2°C 33% 4.0 mph NE6.4 kmh NE 10.0 mph16.1 kmh 29.66 in1004.4 mb 0.00 in0.0 mm 0.00 in0.0 mm 0.00 in0.0 mm
05:20 AM 61.1°F16.2°C 31.8°F-0.1°C 33% 3.0 mph NE4.8 kmh NE 8.0 mph12.9 kmh 29.66 in1004.4 mb 0.00 in0.0 mm 0.00 in0.0 mm 0.00 in0.0 mm
05:19 AM 61.1°F16.2°C 31.0°F-0.6°C 32% 8.0 mph NE12.9 kmh NE 8.0 mph12.9 kmh 29.66 in1004.4 mb 0.00 in0.0 mm 0.00 in0.0 mm 0.00 in0.0 mm
05:18 AM 61.2°F16.2°C 31.1°F-0.5°C 32% 4.0 mph NE6.4 kmh NE 11.0 mph17.7 kmh 29.66 in1004.4 mb 0.00 in0.0 mm 0.00 in0.0 mm 0.00 in0.0 mm
05:17 AM 61.2°F16.2°C 31.1°F-0.5°C 32% 6.0 mph NNE9.7 kmh NNE 12.0 mph19.3 kmh 29.66 in1004.4 mb 0.00 in0.0 mm 0.00 in0.0 mm 0.00 in0.0 mm
05:16 AM 61.3°F16.3°C 31.2°F-0.4°C 32% 3.0 mph N4.8 kmh N 12.0 mph19.3 kmh 29.66 in1004.4 mb 0.00 in0.0 mm 0.00 in0.0 mm 0.00 in0.0 mm
05:15 AM 61.3°F16.3°C 31.2°F-0.4°C 32% 3.0 mph NNE4.8 kmh NNE 10.0 mph16.1 kmh 29.66 in1004.4 mb 0.00 in0.0 mm 0.00 in0.0 mm 0.00 in0.0 mm
05:14 AM 61.3°F16.3°C 31.2°F-0.4°C 32% 8.0 mph N12.9 kmh N 11.0 mph17.7 kmh 29.66 in1004.4 mb 0.00 in0.0 mm 0.00 in0.0 mm 0.00 in0.0 mm
05:13 AM 61.3°F16.3°C 30.4°F-0.9°C 31% 5.0 mph NE8.0 kmh NE 12.0 mph19.3 kmh 29.66 in1004.4 mb 0.00 in0.0 mm 0.00 in0.0 mm 0.00 in0.0 mm
05:12 AM 61.4°F16.3°C 30.5°F-0.8°C 31% 9.0 mph NNE14.5 kmh NNE 12.0 mph19.3 kmh 29.66 in1004.4 mb 0.00 in0.0 mm 0.00 in0.0 mm 0.00 in0.0 mm
05:11 AM 61.4°F16.3°C 30.5°F-0.8°C 31% 7.0 mph NNE11.3 kmh NNE 13.0 mph20.9 kmh 29.66 in1004.4 mb 0.00 in0.0 mm 0.00 in0.0 mm 0.00 in0.0 mm
05:10 AM 61.5°F16.4°C 31.4°F-0.3°C 32% 7.0 mph NE11.3 kmh NE 13.0 mph20.9 kmh 29.66 in1004.4 mb 0.00 in0.0 mm 0.00 in0.0 mm 0.00 in0.0 mm
05:09 AM 61.5°F16.4°C 31.4°F-0.3°C 32% 7.0 mph N11.3 kmh N 16.0 mph25.7 kmh 29.66 in1004.4 mb 0.00 in0.0 mm 0.00 in0.0 mm 0.00 in0.0 mm
05:08 AM 61.5°F16.4°C 30.6°F-0.8°C 31% 9.0 mph N14.5 kmh N 16.0 mph25.7 kmh 29.66 in1004.4 mb 0.00 in0.0 mm 0.00 in0.0 mm 0.00 in0.0 mm
05:07 AM 61.6°F16.4°C 30.7°F-0.7°C 31% 12.0 mph N19.3 kmh N 13.0 mph20.9 kmh 29.66 in1004.4 mb 0.00 in0.0 mm 0.00 in0.0 mm 0.00 in0.0 mm
05:06 AM 61.6°F16.4°C 30.7°F-0.7°C 31% 9.0 mph N14.5 kmh N 13.0 mph20.9 kmh 29.65 in1004.1 mb 0.00 in0.0 mm 0.00 in0.0 mm 0.00 in0.0 mm
05:05 AM 61.6°F16.4°C 30.7°F-0.7°C 31% 10.0 mph NNW16.1 kmh NNW 13.0 mph20.9 kmh 29.65 in1004.1 mb 0.00 in0.0 mm 0.00 in0.0 mm 0.00 in0.0 mm
05:04 AM 61.6°F16.4°C 30.7°F-0.7°C 31% 9.0 mph N14.5 kmh N 13.0 mph20.9 kmh 29.65 in1004.1 mb 0.00 in0.0 mm 0.00 in0.0 mm 0.00 in0.0 mm
05:03 AM 61.6°F16.4°C 30.7°F-0.7°C 31% 8.0 mph N12.9 kmh N 15.0 mph24.1 kmh 29.65 in1004.1 mb 0.00 in0.0 mm 0.00 in0.0 mm 0.00 in0.0 mm
05:02 AM 61.7°F16.5°C 30.8°F-0.7°C 31% 11.0 mph N17.7 kmh N 16.0 mph25.7 kmh 29.65 in1004.1 mb 0.00 in0.0 mm 0.00 in0.0 mm 0.00 in0.0 mm
05:01 AM 61.7°F16.5°C 30.8°F-0.7°C 31% 11.0 mph NNE17.7 kmh NNE 16.0 mph25.7 kmh 29.65 in1004.1 mb 0.00 in0.0 mm 0.00 in0.0 mm 0.00 in0.0 mm
05:00 AM 61.8°F16.6°C 30.9°F-0.6°C 31% 8.0 mph N12.9 kmh N 15.0 mph24.1 kmh 29.65 in1004.1 mb 0.00 in0.0 mm 0.00 in0.0 mm 0.00 in0.0 mm
04:59 AM 61.9°F16.6°C 31.0°F-0.6°C 31% 9.0 mph N14.5 kmh N 15.0 mph24.1 kmh 29.65 in1004.1 mb 0.00 in0.0 mm 0.00 in0.0 mm 0.00 in0.0 mm
04:58 AM 61.9°F16.6°C 31.0°F-0.6°C 31% 5.0 mph N8.0 kmh N 11.0 mph17.7 kmh 29.65 in1004.1 mb 0.00 in0.0 mm 0.00 in0.0 mm 0.00 in0.0 mm
04:57 AM 62.0°F16.7°C 31.0°F-0.6°C 31% 5.0 mph N8.0 kmh N 14.0 mph22.5 kmh 29.65 in1004.1 mb 0.00 in0.0 mm 0.00 in0.0 mm 0.00 in0.0 mm
04:56 AM 62.0°F16.7°C 31.0°F-0.6°C 31% 8.0 mph NE12.9 kmh NE 17.0 mph27.4 kmh 29.65 in1004.1 mb 0.00 in0.0 mm 0.00 in0.0 mm 0.00 in0.0 mm
04:55 AM 62.0°F16.7°C 31.0°F-0.6°C 31% 11.0 mph N17.7 kmh N 16.0 mph25.7 kmh 29.65 in1004.1 mb 0.00 in0.0 mm 0.00 in0.0 mm 0.00 in0.0 mm
04:54 AM 62.1°F16.7°C 31.1°F-0.5°C 31% 7.0 mph N11.3 kmh N 13.0 mph20.9 kmh 29.65 in1004.1 mb 0.00 in0.0 mm 0.00 in0.0 mm 0.00 in0.0 mm
04:53 AM 62.1°F16.7°C 30.3°F-0.9°C 30% 8.0 mph N12.9 kmh N 13.0 mph20.9 kmh 29.65 in1004.1 mb 0.00 in0.0 mm 0.00 in0.0 mm 0.00 in0.0 mm
04:52 AM 62.2°F16.8°C 30.4°F-0.9°C 30% 10.0 mph N16.1 kmh N 12.0 mph19.3 kmh 29.65 in1004.1 mb 0.00 in0.0 mm 0.00 in0.0 mm 0.00 in0.0 mm
04:51 AM 62.2°F16.8°C 30.4°F-0.9°C 30% 12.0 mph NE19.3 kmh NE 15.0 mph24.1 kmh 29.65 in1004.1 mb 0.00 in0.0 mm 0.00 in0.0 mm 0.00 in0.0 mm
04:50 AM 62.3°F16.8°C 30.5°F-0.8°C 30% 11.0 mph NNE17.7 kmh NNE 14.0 mph22.5 kmh 29.65 in1004.1 mb 0.00 in0.0 mm 0.00 in0.0 mm 0.00 in0.0 mm
04:49 AM 62.4°F16.9°C 30.6°F-0.8°C 30% 9.0 mph N14.5 kmh N 13.0 mph20.9 kmh 29.64 in1003.7 mb 0.00 in0.0 mm 0.00 in0.0 mm 0.00 in0.0 mm
04:48 AM 62.4°F16.9°C 30.6°F-0.8°C 30% 10.0 mph NNE16.1 kmh NNE 14.0 mph22.5 kmh 29.64 in1003.7 mb 0.00 in0.0 mm 0.00 in0.0 mm 0.00 in0.0 mm
04:47 AM 62.5°F16.9°C 30.7°F-0.7°C 30% 7.0 mph N11.3 kmh N 16.0 mph25.7 kmh 29.65 in1004.1 mb 0.00 in0.0 mm 0.00 in0.0 mm 0.00 in0.0 mm
04:46 AM 62.6°F17.0°C 30.8°F-0.7°C 30% 9.0 mph N14.5 kmh N 16.0 mph25.7 kmh 29.64 in1003.7 mb 0.00 in0.0 mm 0.00 in0.0 mm 0.00 in0.0 mm
04:45 AM 62.6°F17.0°C 30.8°F-0.7°C 30% 13.0 mph N20.9 kmh N 16.0 mph25.7 kmh 29.64 in1003.7 mb 0.00 in0.0 mm 0.00 in0.0 mm 0.00 in0.0 mm
04:44 AM 62.7°F17.1°C 30.8°F-0.7°C 30% 8.0 mph N12.9 kmh N 16.0 mph25.7 kmh 29.65 in1004.1 mb 0.00 in0.0 mm 0.00 in0.0 mm 0.00 in0.0 mm
04:43 AM 62.8°F17.1°C 30.1°F-1.1°C 29% 9.0 mph N14.5 kmh N 16.0 mph25.7 kmh 29.64 in1003.7 mb 0.00 in0.0 mm 0.00 in0.0 mm 0.00 in0.0 mm
04:42 AM 62.9°F17.2°C 30.2°F-1.0°C 29% 13.0 mph N20.9 kmh N 15.0 mph24.1 kmh 29.64 in1003.7 mb 0.00 in0.0 mm 0.00 in0.0 mm 0.00 in0.0 mm
04:41 AM 63.0°F17.2°C 30.3°F-0.9°C 29% 11.0 mph N17.7 kmh N 15.0 mph24.1 kmh 29.64 in1003.7 mb 0.00 in0.0 mm 0.00 in0.0 mm 0.00 in0.0 mm
04:40 AM 63.0°F17.2°C 30.3°F-0.9°C 29% 12.0 mph NNE19.3 kmh NNE 16.0 mph25.7 kmh 29.64 in1003.7 mb 0.00 in0.0 mm 0.00 in0.0 mm 0.00 in0.0 mm
04:39 AM 63.1°F17.3°C 29.5°F-1.4°C 28% 13.0 mph N20.9 kmh N 16.0 mph25.7 kmh 29.64 in1003.7 mb 0.00 in0.0 mm 0.00 in0.0 mm 0.00 in0.0 mm
04:38 AM 63.1°F17.3°C 29.5°F-1.4°C 28% 6.0 mph N9.7 kmh N 14.0 mph22.5 kmh 29.64 in1003.7 mb 0.00 in0.0 mm 0.00 in0.0 mm 0.00 in0.0 mm
04:37 AM 63.1°F17.3°C 29.5°F-1.4°C 28% 8.0 mph NE12.9 kmh NE 12.0 mph19.3 kmh 29.64 in1003.7 mb 0.00 in0.0 mm 0.00 in0.0 mm 0.00 in0.0 mm
04:36 AM 63.1°F17.3°C 29.5°F-1.4°C 28% 10.0 mph N16.1 kmh N 15.0 mph24.1 kmh 29.64 in1003.7 mb 0.00 in0.0 mm 0.00 in0.0 mm 0.00 in0.0 mm
04:35 AM 63.1°F17.3°C 29.5°F-1.4°C 28% 9.0 mph N14.5 kmh N 15.0 mph24.1 kmh 29.64 in1003.7 mb 0.00 in0.0 mm 0.00 in0.0 mm 0.00 in0.0 mm
04:34 AM 63.1°F17.3°C 29.5°F-1.4°C 28% 11.0 mph N17.7 kmh N 13.0 mph20.9 kmh 29.64 in1003.7 mb 0.00 in0.0 mm 0.00 in0.0 mm 0.00 in0.0 mm
04:33 AM 63.1°F17.3°C 29.5°F-1.4°C 28% 4.0 mph NE6.4 kmh NE 14.0 mph22.5 kmh 29.64 in1003.7 mb 0.00 in0.0 mm 0.00 in0.0 mm 0.00 in0.0 mm
04:32 AM 63.0°F17.2°C 29.4°F-1.4°C 28% 5.0 mph NNE8.0 kmh NNE 14.0 mph22.5 kmh 29.63 in1003.4 mb 0.00 in0.0 mm 0.00 in0.0 mm 0.00 in0.0 mm
04:31 AM 63.0°F17.2°C 29.4°F-1.4°C 28% 11.0 mph NNE17.7 kmh NNE 15.0 mph24.1 kmh 29.63 in1003.4 mb 0.00 in0.0 mm 0.00 in0.0 mm 0.00 in0.0 mm
04:30 AM 63.0°F17.2°C 29.4°F-1.4°C 28% 7.0 mph N11.3 kmh N 15.0 mph24.1 kmh 29.64 in1003.7 mb 0.00 in0.0 mm 0.00 in0.0 mm 0.00 in0.0 mm
04:29 AM 62.7°F17.1°C 30.0°F-1.1°C 29% 9.0 mph N14.5 kmh N 13.0 mph20.9 kmh 29.63 in1003.4 mb 0.00 in0.0 mm 0.00 in0.0 mm 0.00 in0.0 mm
04:28 AM 62.6°F17.0°C 29.9°F-1.2°C 29% 10.0 mph NE16.1 kmh NE 13.0 mph20.9 kmh 29.63 in1003.4 mb 0.00 in0.0 mm 0.00 in0.0 mm 0.00 in0.0 mm
04:27 AM 62.6°F17.0°C 29.9°F-1.2°C 29% 7.0 mph N11.3 kmh N 10.0 mph16.1 kmh 29.63 in1003.4 mb 0.00 in0.0 mm 0.00 in0.0 mm 0.00 in0.0 mm
04:26 AM 62.5°F16.9°C 30.7°F-0.7°C 30% 6.0 mph N9.7 kmh N 12.0 mph19.3 kmh 29.63 in1003.4 mb 0.00 in0.0 mm 0.00 in0.0 mm 0.00 in0.0 mm
04:25 AM 62.5°F16.9°C 30.7°F-0.7°C 30% 10.0 mph NE16.1 kmh NE 13.0 mph20.9 kmh 29.63 in1003.4 mb 0.00 in0.0 mm 0.00 in0.0 mm 0.00 in0.0 mm
04:24 AM 62.5°F16.9°C 31.5°F-0.3°C 31% 10.0 mph N16.1 kmh N 13.0 mph20.9 kmh 29.63 in1003.4 mb 0.00 in0.0 mm 0.00 in0.0 mm 0.00 in0.0 mm
04:23 AM 62.5°F16.9°C 31.5°F-0.3°C 31% 9.0 mph NNE14.5 kmh NNE 13.0 mph20.9 kmh 29.63 in1003.4 mb 0.00 in0.0 mm 0.00 in0.0 mm 0.00 in0.0 mm
04:22 AM 62.5°F16.9°C 31.5°F-0.3°C 31% 10.0 mph NE16.1 kmh NE 14.0 mph22.5 kmh 29.63 in1003.4 mb 0.00 in0.0 mm 0.00 in0.0 mm 0.00 in0.0 mm
04:21 AM 62.6°F17.0°C 31.6°F-0.2°C 31% 6.0 mph N9.7 kmh N 14.0 mph22.5 kmh 29.63 in1003.4 mb 0.00 in0.0 mm 0.00 in0.0 mm 0.00 in0.0 mm
04:20 AM 62.6°F17.0°C 32.4°F0.2°C 32% 4.0 mph NE6.4 kmh NE 12.0 mph19.3 kmh 29.63 in1003.4 mb 0.00 in0.0 mm 0.00 in0.0 mm 0.00 in0.0 mm
04:19 AM 62.7°F17.1°C 32.4°F0.2°C 32% 7.0 mph N11.3 kmh N 12.0 mph19.3 kmh 29.63 in1003.4 mb 0.00 in0.0 mm 0.00 in0.0 mm 0.00 in0.0 mm
04:18 AM 62.7°F17.1°C 32.4°F0.2°C 32% 10.0 mph NE16.1 kmh NE 12.0 mph19.3 kmh 29.63 in1003.4 mb 0.00 in0.0 mm 0.00 in0.0 mm 0.00 in0.0 mm
04:17 AM 62.8°F17.1°C 32.5°F0.3°C 32% 9.0 mph N14.5 kmh N 17.0 mph27.4 kmh 29.63 in1003.4 mb 0.00 in0.0 mm 0.00 in0.0 mm 0.00 in0.0 mm
04:16 AM 62.8°F17.1°C 32.5°F0.3°C 32% 9.0 mph NE14.5 kmh NE 17.0 mph27.4 kmh 29.63 in1003.4 mb 0.00 in0.0 mm 0.00 in0.0 mm 0.00 in0.0 mm
04:15 AM 62.9°F17.2°C 32.6°F0.3°C 32% 11.0 mph NE17.7 kmh NE 13.0 mph20.9 kmh 29.63 in1003.4 mb 0.00 in0.0 mm 0.00 in0.0 mm 0.00 in0.0 mm
04:14 AM 62.9°F17.2°C 32.6°F0.3°C 32% 9.0 mph N14.5 kmh N 13.0 mph20.9 kmh 29.63 in1003.4 mb 0.00 in0.0 mm 0.00 in0.0 mm 0.00 in0.0 mm
04:13 AM 63.0°F17.2°C 32.7°F0.4°C 32% 5.0 mph N8.0 kmh N 15.0 mph24.1 kmh 29.63 in1003.4 mb 0.00 in0.0 mm 0.00 in0.0 mm 0.00 in0.0 mm
04:12 AM 63.0°F17.2°C 32.7°F0.4°C 32% 10.0 mph N16.1 kmh N 15.0 mph24.1 kmh 29.63 in1003.4 mb 0.00 in0.0 mm 0.00 in0.0 mm 0.00 in0.0 mm
04:11 AM 63.1°F17.3°C 32.8°F0.4°C 32% 4.0 mph N6.4 kmh N 16.0 mph25.7 kmh 29.63 in1003.4 mb 0.00 in0.0 mm 0.00 in0.0 mm 0.00 in0.0 mm
04:10 AM 63.1°F17.3°C 32.8°F0.4°C 32% 9.0 mph N14.5 kmh N 16.0 mph25.7 kmh 29.63 in1003.4 mb 0.00 in0.0 mm 0.00 in0.0 mm 0.00 in0.0 mm
04:09 AM 63.1°F17.3°C 32.8°F0.4°C 32% 13.0 mph N20.9 kmh N 15.0 mph24.1 kmh 29.63 in1003.4 mb 0.00 in0.0 mm 0.00 in0.0 mm 0.00 in0.0 mm
04:08 AM 63.2°F17.3°C 32.9°F0.5°C 32% 9.0 mph N14.5 kmh N 15.0 mph24.1 kmh 29.62 in1003.0 mb 0.00 in0.0 mm 0.00 in0.0 mm 0.00 in0.0 mm
04:07 AM 63.2°F17.3°C 32.9°F0.5°C 32% 9.0 mph N14.5 kmh N 14.0 mph22.5 kmh 29.62 in1003.0 mb 0.00 in0.0 mm 0.00 in0.0 mm 0.00 in0.0 mm
04:06 AM 63.3°F17.4°C 33.0°F0.6°C 32% 6.0 mph N9.7 kmh N 14.0 mph22.5 kmh 29.62 in1003.0 mb 0.00 in0.0 mm 0.00 in0.0 mm 0.00 in0.0 mm
04:05 AM 63.4°F17.4°C 33.1°F0.6°C 32% 6.0 mph NNE9.7 kmh NNE 13.0 mph20.9 kmh 29.62 in1003.0 mb 0.00 in0.0 mm 0.00 in0.0 mm 0.00 in0.0 mm
04:04 AM 63.4°F17.4°C 33.8°F1.0°C 33% 9.0 mph NNE14.5 kmh NNE 11.0 mph17.7 kmh 29.62 in1003.0 mb 0.00 in0.0 mm 0.00 in0.0 mm 0.00 in0.0 mm
04:03 AM 63.5°F17.5°C 33.9°F1.1°C 33% 9.0 mph N14.5 kmh N 13.0 mph20.9 kmh 29.62 in1003.0 mb 0.00 in0.0 mm 0.00 in0.0 mm 0.00 in0.0 mm
04:02 AM 63.6°F17.6°C 33.2°F0.7°C 32% 10.0 mph N16.1 kmh N 13.0 mph20.9 kmh 29.62 in1003.0 mb 0.00 in0.0 mm 0.00 in0.0 mm 0.00 in0.0 mm
04:01 AM 63.6°F17.6°C 34.0°F1.1°C 33% 10.0 mph N16.1 kmh N 15.0 mph24.1 kmh 29.62 in1003.0 mb 0.00 in0.0 mm 0.00 in0.0 mm 0.00 in0.0 mm
04:00 AM 63.7°F17.6°C 33.3°F0.7°C 32% 11.0 mph N17.7 kmh N 14.0 mph22.5 kmh 29.62 in1003.0 mb 0.00 in0.0 mm 0.00 in0.0 mm 0.00 in0.0 mm
03:59 AM 63.8°F17.7°C 33.4°F0.8°C 32% 9.0 mph NNE14.5 kmh NNE 14.0 mph22.5 kmh 29.62 in1003.0 mb 0.00 in0.0 mm 0.00 in0.0 mm 0.00 in0.0 mm
03:58 AM 63.9°F17.7°C 33.5°F0.8°C 32% 14.0 mph N22.5 kmh N 14.0 mph22.5 kmh 29.62 in1003.0 mb 0.00 in0.0 mm 0.00 in0.0 mm 0.00 in0.0 mm
03:57 AM 64.0°F17.8°C 33.6°F0.9°C 32% 12.0 mph NNE19.3 kmh NNE 14.0 mph22.5 kmh 29.62 in1003.0 mb 0.00 in0.0 mm 0.00 in0.0 mm 0.00 in0.0 mm
03:56 AM 64.0°F17.8°C 32.8°F0.4°C 31% 5.0 mph NE8.0 kmh NE 15.0 mph24.1 kmh 29.62 in1003.0 mb 0.00 in0.0 mm 0.00 in0.0 mm 0.00 in0.0 mm
03:55 AM 64.0°F17.8°C 32.8°F0.4°C 31% 8.0 mph NNE12.9 kmh NNE 17.0 mph27.4 kmh 29.62 in1003.0 mb 0.00 in0.0 mm 0.00 in0.0 mm 0.00 in0.0 mm
03:54 AM 64.0°F17.8°C 32.8°F0.4°C 31% 7.0 mph NE11.3 kmh NE 14.0 mph22.5 kmh 29.62 in1003.0 mb 0.00 in0.0 mm 0.00 in0.0 mm 0.00 in0.0 mm
03:53 AM 64.1°F17.8°C 32.9°F0.5°C 31% 13.0 mph N20.9 kmh N 14.0 mph22.5 kmh 29.62 in1003.0 mb 0.00 in0.0 mm 0.00 in0.0 mm 0.00 in0.0 mm
03:52 AM 64.1°F17.8°C 32.9°F0.5°C 31% 11.0 mph NNW17.7 kmh NNW 12.0 mph19.3 kmh 29.62 in1003.0 mb 0.00 in0.0 mm 0.00 in0.0 mm 0.00 in0.0 mm
03:51 AM 64.1°F17.8°C 32.9°F0.5°C 31% 8.0 mph N12.9 kmh N 13.0 mph20.9 kmh 29.62 in1003.0 mb 0.00 in0.0 mm 0.00 in0.0 mm 0.00 in0.0 mm
03:50 AM 64.1°F17.8°C 32.9°F0.5°C 31% 10.0 mph N16.1 kmh N 13.0 mph20.9 kmh 29.62 in1003.0 mb 0.00 in0.0 mm 0.00 in0.0 mm 0.00 in0.0 mm
03:49 AM 64.1°F17.8°C 33.7°F0.9°C 32% 5.0 mph NNE8.0 kmh NNE 14.0 mph22.5 kmh 29.62 in1003.0 mb 0.00 in0.0 mm 0.00 in0.0 mm 0.00 in0.0 mm
03:48 AM 64.1°F17.8°C 33.7°F0.9°C 32% 14.0 mph NE22.5 kmh NE 14.0 mph22.5 kmh 29.62 in1003.0 mb 0.00 in0.0 mm 0.00 in0.0 mm 0.00 in0.0 mm
03:47 AM 64.1°F17.8°C 33.7°F0.9°C 32% 9.0 mph NNE14.5 kmh NNE 16.0 mph25.7 kmh 29.61 in1002.7 mb 0.00 in0.0 mm 0.00 in0.0 mm 0.00 in0.0 mm
03:46 AM 64.1°F17.8°C 34.4°F1.3°C 33% 5.0 mph NNE8.0 kmh NNE 15.0 mph24.1 kmh 29.62 in1003.0 mb 0.00 in0.0 mm 0.00 in0.0 mm 0.00 in0.0 mm
03:45 AM 64.2°F17.9°C 34.5°F1.4°C 33% 11.0 mph NE17.7 kmh NE 19.0 mph30.6 kmh 29.62 in1003.0 mb 0.00 in0.0 mm 0.00 in0.0 mm 0.00 in0.0 mm
03:44 AM 64.2°F17.9°C 34.5°F1.4°C 33% 9.0 mph NNE14.5 kmh NNE 12.0 mph19.3 kmh 29.62 in1003.0 mb 0.00 in0.0 mm 0.00 in0.0 mm 0.00 in0.0 mm
03:43 AM 64.2°F17.9°C 35.3°F1.8°C 34% 8.0 mph N12.9 kmh N 12.0 mph19.3 kmh 29.62 in1003.0 mb 0.00 in0.0 mm 0.00 in0.0 mm 0.00 in0.0 mm
03:42 AM 64.3°F17.9°C 35.4°F1.9°C 34% 12.0 mph NNE19.3 kmh NNE 13.0 mph20.9 kmh 29.62 in1003.0 mb 0.00 in0.0 mm 0.00 in0.0 mm 0.00 in0.0 mm
03:41 AM 64.3°F17.9°C 35.4°F1.9°C 34% 13.0 mph N20.9 kmh N 13.0 mph20.9 kmh 29.61 in1002.7 mb 0.00 in0.0 mm 0.00 in0.0 mm 0.00 in0.0 mm
03:40 AM 64.3°F17.9°C 35.4°F1.9°C 34% 10.0 mph N16.1 kmh N 16.0 mph25.7 kmh 29.62 in1003.0 mb 0.00 in0.0 mm 0.00 in0.0 mm 0.00 in0.0 mm
03:39 AM 64.4°F18.0°C 35.5°F1.9°C 34% 9.0 mph NNE14.5 kmh NNE 20.0 mph32.2 kmh 29.61 in1002.7 mb 0.00 in0.0 mm 0.00 in0.0 mm 0.00 in0.0 mm
03:38 AM 64.4°F18.0°C 35.5°F1.9°C 34% 9.0 mph N14.5 kmh N 15.0 mph24.1 kmh 29.61 in1002.7 mb 0.00 in0.0 mm 0.00 in0.0 mm 0.00 in0.0 mm
03:37 AM 64.4°F18.0°C 35.5°F1.9°C 34% 10.0 mph NNE16.1 kmh NNE 16.0 mph25.7 kmh 29.61 in1002.7 mb 0.00 in0.0 mm 0.00 in0.0 mm 0.00 in0.0 mm
03:36 AM 64.5°F18.1°C 35.5°F1.9°C 34% 8.0 mph NNE12.9 kmh NNE 16.0 mph25.7 kmh 29.61 in1002.7 mb 0.00 in0.0 mm 0.00 in0.0 mm 0.00 in0.0 mm
03:35 AM 64.5°F18.1°C 35.5°F1.9°C 34% 7.0 mph NNW11.3 kmh NNW 17.0 mph27.4 kmh 29.61 in1002.7 mb 0.00 in0.0 mm 0.00 in0.0 mm 0.00 in0.0 mm
03:34 AM 64.4°F18.0°C 35.5°F1.9°C 34% 9.0 mph NNE14.5 kmh NNE 17.0 mph27.4 kmh 29.61 in1002.7 mb 0.00 in0.0 mm 0.00 in0.0 mm 0.00 in0.0 mm
03:33 AM 64.4°F18.0°C 36.2°F2.3°C 35% 9.0 mph N14.5 kmh N 14.0 mph22.5 kmh 29.61 in1002.7 mb 0.00 in0.0 mm 0.00 in0.0 mm 0.00 in0.0 mm
03:32 AM 64.4°F18.0°C 36.2°F2.3°C 35% 6.0 mph N9.7 kmh N 16.0 mph25.7 kmh 29.61 in1002.7 mb 0.00 in0.0 mm 0.00 in0.0 mm 0.00 in0.0 mm
03:31 AM 64.4°F18.0°C 36.2°F2.3°C 35% 6.0 mph NNE9.7 kmh NNE 20.0 mph32.2 kmh 29.61 in1002.7 mb 0.00 in0.0 mm 0.00 in0.0 mm 0.00 in0.0 mm
03:29 AM 64.4°F18.0°C 36.9°F2.7°C 36% 12.0 mph N19.3 kmh N 13.0 mph20.9 kmh 29.61 in1002.7 mb 0.00 in0.0 mm 0.00 in0.0 mm 0.00 in0.0 mm
03:28 AM 64.3°F17.9°C 36.8°F2.7°C 36% 13.0 mph NNE20.9 kmh NNE 17.0 mph27.4 kmh 29.61 in1002.7 mb 0.00 in0.0 mm 0.00 in0.0 mm 0.00 in0.0 mm
03:27 AM 64.3°F17.9°C 36.8°F2.7°C 36% 12.0 mph N19.3 kmh N 17.0 mph27.4 kmh 29.61 in1002.7 mb 0.00 in0.0 mm 0.00 in0.0 mm 0.00 in0.0 mm
03:26 AM 64.3°F17.9°C 36.8°F2.7°C 36% 5.0 mph NE8.0 kmh NE 15.0 mph24.1 kmh 29.61 in1002.7 mb 0.00 in0.0 mm 0.00 in0.0 mm 0.00 in0.0 mm
03:25 AM 64.3°F17.9°C 37.5°F3.1°C 37% 12.0 mph N19.3 kmh N 16.0 mph25.7 kmh 29.61 in1002.7 mb 0.00 in0.0 mm 0.00 in0.0 mm 0.00 in0.0 mm
03:24 AM 64.3°F17.9°C 37.5°F3.1°C 37% 10.0 mph NE16.1 kmh NE 16.0 mph25.7 kmh 29.61 in1002.7 mb 0.00 in0.0 mm 0.00 in0.0 mm 0.00 in0.0 mm
03:23 AM 64.4°F18.0°C 37.6°F3.1°C 37% 11.0 mph N17.7 kmh N 15.0 mph24.1 kmh 29.61 in1002.7 mb 0.00 in0.0 mm 0.00 in0.0 mm 0.00 in0.0 mm
03:22 AM 64.4°F18.0°C 38.3°F3.5°C 38% 8.0 mph N12.9 kmh N 15.0 mph24.1 kmh 29.61 in1002.7 mb 0.00 in0.0 mm 0.00 in0.0 mm 0.00 in0.0 mm
03:21 AM 64.4°F18.0°C 37.6°F3.1°C 37% 5.0 mph N8.0 kmh N 17.0 mph27.4 kmh 29.61 in1002.7 mb 0.00 in0.0 mm 0.00 in0.0 mm 0.00 in0.0 mm
03:20 AM 64.4°F18.0°C 37.6°F3.1°C 37% 8.0 mph NNE12.9 kmh NNE 17.0 mph27.4 kmh 29.61 in1002.7 mb 0.00 in0.0 mm 0.00 in0.0 mm 0.00 in0.0 mm
03:19 AM 64.4°F18.0°C 37.6°F3.1°C 37% 12.0 mph NNE19.3 kmh NNE 16.0 mph25.7 kmh 29.61 in1002.7 mb 0.00 in0.0 mm 0.00 in0.0 mm 0.00 in0.0 mm
03:18 AM 64.4°F18.0°C 37.6°F3.1°C 37% 13.0 mph N20.9 kmh N 16.0 mph25.7 kmh 29.61 in1002.7 mb 0.00 in0.0 mm 0.00 in0.0 mm 0.00 in0.0 mm
03:17 AM 64.4°F18.0°C 37.6°F3.1°C 37% 4.0 mph N6.4 kmh N 15.0 mph24.1 kmh 29.60 in1002.4 mb 0.00 in0.0 mm 0.00 in0.0 mm 0.00 in0.0 mm
03:16 AM 64.4°F18.0°C 37.6°F3.1°C 37% 9.0 mph N14.5 kmh N 16.0 mph25.7 kmh 29.61 in1002.7 mb 0.00 in0.0 mm 0.00 in0.0 mm 0.00 in0.0 mm
03:15 AM 64.4°F18.0°C 38.3°F3.5°C 38% 12.0 mph NE19.3 kmh NE 16.0 mph25.7 kmh 29.61 in1002.7 mb 0.00 in0.0 mm 0.00 in0.0 mm 0.00 in0.0 mm
03:14 AM 64.4°F18.0°C 38.3°F3.5°C 38% 8.0 mph NNE12.9 kmh NNE 14.0 mph22.5 kmh 29.60 in1002.4 mb 0.00 in0.0 mm 0.00 in0.0 mm 0.00 in0.0 mm
03:13 AM 64.4°F18.0°C 37.6°F3.1°C 37% 5.0 mph NNE8.0 kmh NNE 19.0 mph30.6 kmh 29.60 in1002.4 mb 0.00 in0.0 mm 0.00 in0.0 mm 0.00 in0.0 mm
03:12 AM 64.4°F18.0°C 38.3°F3.5°C 38% 9.0 mph N14.5 kmh N 19.0 mph30.6 kmh 29.60 in1002.4 mb 0.00 in0.0 mm 0.00 in0.0 mm 0.00 in0.0 mm
03:11 AM 64.4°F18.0°C 38.3°F3.5°C 38% 11.0 mph N17.7 kmh N 13.0 mph20.9 kmh 29.60 in1002.4 mb 0.00 in0.0 mm 0.00 in0.0 mm 0.00 in0.0 mm
03:10 AM 64.4°F18.0°C 38.3°F3.5°C 38% 13.0 mph NE20.9 kmh NE 13.0 mph20.9 kmh 29.60 in1002.4 mb 0.00 in0.0 mm 0.00 in0.0 mm 0.00 in0.0 mm
03:09 AM 64.5°F18.1°C 38.4°F3.6°C 38% 11.0 mph N17.7 kmh N 13.0 mph20.9 kmh 29.60 in1002.4 mb 0.00 in0.0 mm 0.00 in0.0 mm 0.00 in0.0 mm
03:08 AM 64.4°F18.0°C 38.3°F3.5°C 38% 11.0 mph N17.7 kmh N 13.0 mph20.9 kmh 29.60 in1002.4 mb 0.00 in0.0 mm 0.00 in0.0 mm 0.00 in0.0 mm
03:07 AM 64.5°F18.1°C 38.4°F3.6°C 38% 3.0 mph N4.8 kmh N 13.0 mph20.9 kmh 29.60 in1002.4 mb 0.00 in0.0 mm 0.00 in0.0 mm 0.00 in0.0 mm
03:06 AM 64.5°F18.1°C 39.0°F3.9°C 39% 12.0 mph N19.3 kmh N 15.0 mph24.1 kmh 29.60 in1002.4 mb 0.00 in0.0 mm 0.00 in0.0 mm 0.00 in0.0 mm
03:05 AM 64.5°F18.1°C 38.4°F3.6°C 38% 11.0 mph NE17.7 kmh NE 13.0 mph20.9 kmh 29.60 in1002.4 mb 0.00 in0.0 mm 0.00 in0.0 mm 0.00 in0.0 mm
03:04 AM 64.5°F18.1°C 39.0°F3.9°C 39% 10.0 mph N16.1 kmh N 16.0 mph25.7 kmh 29.60 in1002.4 mb 0.00 in0.0 mm 0.00 in0.0 mm 0.00 in0.0 mm
03:03 AM 64.5°F18.1°C 39.0°F3.9°C 39% 12.0 mph NE19.3 kmh NE 16.0 mph25.7 kmh 29.60 in1002.4 mb 0.00 in0.0 mm 0.00 in0.0 mm 0.00 in0.0 mm
03:02 AM 64.5°F18.1°C 39.0°F3.9°C 39% 8.0 mph NNE12.9 kmh NNE 14.0 mph22.5 kmh 29.60 in1002.4 mb 0.00 in0.0 mm 0.00 in0.0 mm 0.00 in0.0 mm
03:01 AM 64.6°F18.1°C 39.1°F3.9°C 39% 10.0 mph N16.1 kmh N 15.0 mph24.1 kmh 29.60 in1002.4 mb 0.00 in0.0 mm 0.00 in0.0 mm 0.00 in0.0 mm
03:00 AM 64.6°F18.1°C 39.1°F3.9°C 39% 15.0 mph N24.1 kmh N 15.0 mph24.1 kmh 29.60 in1002.4 mb 0.00 in0.0 mm 0.00 in0.0 mm 0.00 in0.0 mm
02:59 AM 64.6°F18.1°C 39.1°F3.9°C 39% 6.0 mph N9.7 kmh N 10.0 mph16.1 kmh 29.60 in1002.4 mb 0.00 in0.0 mm 0.00 in0.0 mm 0.00 in0.0 mm
02:58 AM 64.6°F18.1°C 39.1°F3.9°C 39% 8.0 mph N12.9 kmh N 12.0 mph19.3 kmh 29.59 in1002.0 mb 0.00 in0.0 mm 0.00 in0.0 mm 0.00 in0.0 mm
02:57 AM 64.7°F18.2°C 39.2°F4.0°C 39% 9.0 mph NE14.5 kmh NE 13.0 mph20.9 kmh 29.59 in1002.0 mb 0.00 in0.0 mm 0.00 in0.0 mm 0.00 in0.0 mm
02:56 AM 64.7°F18.2°C 39.2°F4.0°C 39% 10.0 mph N16.1 kmh N 16.0 mph25.7 kmh 29.59 in1002.0 mb 0.00 in0.0 mm 0.00 in0.0 mm 0.00 in0.0 mm
02:55 AM 64.7°F18.2°C 39.2°F4.0°C 39% 8.0 mph NNE12.9 kmh NNE 18.0 mph29.0 kmh 29.59 in1002.0 mb 0.00 in0.0 mm 0.00 in0.0 mm 0.00 in0.0 mm
02:54 AM 64.7°F18.2°C 39.2°F4.0°C 39% 8.0 mph N12.9 kmh N 18.0 mph29.0 kmh 29.59 in1002.0 mb 0.00 in0.0 mm 0.00 in0.0 mm 0.00 in0.0 mm
02:53 AM 64.7°F18.2°C 39.2°F4.0°C 39% 8.0 mph NE12.9 kmh NE 16.0 mph25.7 kmh 29.59 in1002.0 mb 0.00 in0.0 mm 0.00 in0.0 mm 0.00 in0.0 mm
02:52 AM 64.8°F18.2°C 39.3°F4.1°C 39% 6.0 mph NNE9.7 kmh NNE 13.0 mph20.9 kmh 29.59 in1002.0 mb 0.00 in0.0 mm 0.00 in0.0 mm 0.00 in0.0 mm
02:51 AM 64.8°F18.2°C 39.3°F4.1°C 39% 9.0 mph NE14.5 kmh NE 16.0 mph25.7 kmh 29.59 in1002.0 mb 0.00 in0.0 mm 0.00 in0.0 mm 0.00 in0.0 mm
02:50 AM 64.8°F18.2°C 38.6°F3.7°C 38% 10.0 mph NE16.1 kmh NE 16.0 mph25.7 kmh 29.59 in1002.0 mb 0.00 in0.0 mm 0.00 in0.0 mm 0.00 in0.0 mm
02:49 AM 64.8°F18.2°C 39.3°F4.1°C 39% 4.0 mph NNE6.4 kmh NNE 14.0 mph22.5 kmh 29.59 in1002.0 mb 0.00 in0.0 mm 0.00 in0.0 mm 0.00 in0.0 mm
02:48 AM 64.9°F18.3°C 39.4°F4.1°C 39% 7.0 mph N11.3 kmh N 16.0 mph25.7 kmh 29.59 in1002.0 mb 0.00 in0.0 mm 0.00 in0.0 mm 0.00 in0.0 mm
02:47 AM 64.9°F18.3°C 39.4°F4.1°C 39% 12.0 mph N19.3 kmh N 13.0 mph20.9 kmh 29.59 in1002.0 mb 0.00 in0.0 mm 0.00 in0.0 mm 0.00 in0.0 mm
02:46 AM 64.9°F18.3°C 39.4°F4.1°C 39% 13.0 mph N20.9 kmh N 13.0 mph20.9 kmh 29.59 in1002.0 mb 0.00 in0.0 mm 0.00 in0.0 mm 0.00 in0.0 mm
02:45 AM 64.9°F18.3°C 39.4°F4.1°C 39% 8.0 mph NE12.9 kmh NE 13.0 mph20.9 kmh 29.59 in1002.0 mb 0.00 in0.0 mm 0.00 in0.0 mm 0.00 in0.0 mm
02:44 AM 65.0°F18.3°C 39.5°F4.2°C 39% 9.0 mph N14.5 kmh N 11.0 mph17.7 kmh 29.59 in1002.0 mb 0.00 in0.0 mm 0.00 in0.0 mm 0.00 in0.0 mm
02:43 AM 65.0°F18.3°C 39.5°F4.2°C 39% 9.0 mph NNW14.5 kmh NNW 18.0 mph29.0 kmh 29.59 in1002.0 mb 0.00 in0.0 mm 0.00 in0.0 mm 0.00 in0.0 mm
02:42 AM 65.0°F18.3°C 39.5°F4.2°C 39% 12.0 mph N19.3 kmh N 18.0 mph29.0 kmh 29.59 in1002.0 mb 0.00 in0.0 mm 0.00 in0.0 mm 0.00 in0.0 mm
02:41 AM 65.1°F18.4°C 39.6°F4.2°C 39% 11.0 mph NNE17.7 kmh NNE 12.0 mph19.3 kmh 29.59 in1002.0 mb 0.00 in0.0 mm 0.00 in0.0 mm 0.00 in0.0 mm
02:40 AM 65.1°F18.4°C 39.6°F4.2°C 39% 9.0 mph N14.5 kmh N 13.0 mph20.9 kmh 29.59 in1002.0 mb 0.00 in0.0 mm 0.00 in0.0 mm 0.00 in0.0 mm
02:39 AM 65.2°F18.4°C 40.3°F4.6°C 40% 10.0 mph N16.1 kmh N 14.0 mph22.5 kmh 29.59 in1002.0 mb 0.00 in0.0 mm 0.00 in0.0 mm 0.00 in0.0 mm
02:38 AM 65.2°F18.4°C 40.3°F4.6°C 40% 8.0 mph N12.9 kmh N 14.0 mph22.5 kmh 29.59 in1002.0 mb 0.00 in0.0 mm 0.00 in0.0 mm 0.00 in0.0 mm
02:37 AM 65.3°F18.5°C 40.4°F4.7°C 40% 9.0 mph N14.5 kmh N 11.0 mph17.7 kmh 29.59 in1002.0 mb 0.00 in0.0 mm 0.00 in0.0 mm 0.00 in0.0 mm
02:36 AM 65.4°F18.6°C 40.5°F4.7°C 40% 7.0 mph N11.3 kmh N 13.0 mph20.9 kmh 29.59 in1002.0 mb 0.00 in0.0 mm 0.00 in0.0 mm 0.00 in0.0 mm
02:35 AM 65.4°F18.6°C 40.5°F4.7°C 40% 7.0 mph NE11.3 kmh NE 13.0 mph20.9 kmh 29.59 in1002.0 mb 0.00 in0.0 mm 0.00 in0.0 mm 0.00 in0.0 mm
02:34 AM 65.5°F18.6°C 39.9°F4.4°C 39% 5.0 mph N8.0 kmh N 12.0 mph19.3 kmh 29.59 in1002.0 mb 0.00 in0.0 mm 0.00 in0.0 mm 0.00 in0.0 mm
02:33 AM 65.6°F18.7°C 40.0°F4.4°C 39% 11.0 mph NNW17.7 kmh NNW 12.0 mph19.3 kmh 29.59 in1002.0 mb 0.00 in0.0 mm 0.00 in0.0 mm 0.00 in0.0 mm
02:32 AM 65.6°F18.7°C 40.0°F4.4°C 39% 9.0 mph NNE14.5 kmh NNE 13.0 mph20.9 kmh 29.59 in1002.0 mb 0.00 in0.0 mm 0.00 in0.0 mm 0.00 in0.0 mm
02:31 AM 65.7°F18.7°C 40.1°F4.5°C 39% 4.0 mph N6.4 kmh N 13.0 mph20.9 kmh 29.59 in1002.0 mb 0.00 in0.0 mm 0.00 in0.0 mm 0.00 in0.0 mm
02:29 AM 65.8°F18.8°C 40.2°F4.6°C 39% 4.0 mph NNE6.4 kmh NNE 14.0 mph22.5 kmh 29.59 in1002.0 mb 0.00 in0.0 mm 0.00 in0.0 mm 0.00 in0.0 mm
02:28 AM 65.8°F18.8°C 39.5°F4.2°C 38% 6.0 mph NE9.7 kmh NE 14.0 mph22.5 kmh 29.59 in1002.0 mb 0.00 in0.0 mm 0.00 in0.0 mm 0.00 in0.0 mm
02:27 AM 65.9°F18.8°C 39.6°F4.2°C 38% 11.0 mph NNE17.7 kmh NNE 18.0 mph29.0 kmh 29.59 in1002.0 mb 0.00 in0.0 mm 0.00 in0.0 mm 0.00 in0.0 mm
02:26 AM 65.9°F18.8°C 40.3°F4.6°C 39% 7.0 mph NNE11.3 kmh NNE 18.0 mph29.0 kmh 29.59 in1002.0 mb 0.00 in0.0 mm 0.00 in0.0 mm 0.00 in0.0 mm
02:25 AM 65.9°F18.8°C 39.6°F4.2°C 38% 8.0 mph NNE12.9 kmh NNE 14.0 mph22.5 kmh 29.59 in1002.0 mb 0.00 in0.0 mm 0.00 in0.0 mm 0.00 in0.0 mm
02:24 AM 66.0°F18.9°C 39.7°F4.3°C 38% 14.0 mph NNE22.5 kmh NNE 14.0 mph22.5 kmh 29.59 in1002.0 mb 0.00 in0.0 mm 0.00 in0.0 mm 0.00 in0.0 mm
02:23 AM 66.0°F18.9°C 39.7°F4.3°C 38% 11.0 mph N17.7 kmh N 16.0 mph25.7 kmh 29.58 in1001.7 mb 0.00 in0.0 mm 0.00 in0.0 mm 0.00 in0.0 mm
02:22 AM 66.1°F18.9°C 39.8°F4.3°C 38% 16.0 mph NW25.7 kmh NW 16.0 mph25.7 kmh 29.58 in1001.7 mb 0.00 in0.0 mm 0.00 in0.0 mm 0.00 in0.0 mm
02:21 AM 66.1°F18.9°C 39.8°F4.3°C 38% 10.0 mph N16.1 kmh N 18.0 mph29.0 kmh 29.58 in1001.7 mb 0.00 in0.0 mm 0.00 in0.0 mm 0.00 in0.0 mm
02:20 AM 66.2°F19.0°C 39.9°F4.4°C 38% 10.0 mph NNE16.1 kmh NNE 17.0 mph27.4 kmh 29.58 in1001.7 mb 0.00 in0.0 mm 0.00 in0.0 mm 0.00 in0.0 mm
02:19 AM 66.3°F19.1°C 40.0°F4.4°C 38% 2.0 mph N3.2 kmh N 13.0 mph20.9 kmh 29.58 in1001.7 mb 0.00 in0.0 mm 0.00 in0.0 mm 0.00 in0.0 mm
02:18 AM 66.3°F19.1°C 40.0°F4.4°C 38% 10.0 mph NNE16.1 kmh NNE 14.0 mph22.5 kmh 29.58 in1001.7 mb 0.00 in0.0 mm 0.00 in0.0 mm 0.00 in0.0 mm
02:17 AM 66.4°F19.1°C 40.1°F4.5°C 38% 9.0 mph N14.5 kmh N 17.0 mph27.4 kmh 29.58 in1001.7 mb 0.00 in0.0 mm 0.00 in0.0 mm 0.00 in0.0 mm
02:16 AM 66.5°F19.2°C 40.1°F4.5°C 38% 13.0 mph N20.9 kmh N 15.0 mph24.1 kmh 29.58 in1001.7 mb 0.00 in0.0 mm 0.00 in0.0 mm 0.00 in0.0 mm
02:15 AM 66.5°F19.2°C 40.1°F4.5°C 38% 10.0 mph N16.1 kmh N 16.0 mph25.7 kmh 29.58 in1001.7 mb 0.00 in0.0 mm 0.00 in0.0 mm 0.00 in0.0 mm
02:14 AM 66.6°F19.2°C 40.2°F4.6°C 38% 9.0 mph NNE14.5 kmh NNE 17.0 mph27.4 kmh 29.58 in1001.7 mb 0.00 in0.0 mm 0.00 in0.0 mm 0.00 in0.0 mm
02:13 AM 66.7°F19.3°C 39.6°F4.2°C 37% 7.0 mph NE11.3 kmh NE 17.0 mph27.4 kmh 29.58 in1001.7 mb 0.00 in0.0 mm 0.00 in0.0 mm 0.00 in0.0 mm
02:12 AM 66.7°F19.3°C 39.6°F4.2°C 37% 5.0 mph NNE8.0 kmh NNE 13.0 mph20.9 kmh 29.58 in1001.7 mb 0.00 in0.0 mm 0.00 in0.0 mm 0.00 in0.0 mm
02:11 AM 66.8°F19.3°C 39.7°F4.3°C 37% 9.0 mph N14.5 kmh N 14.0 mph22.5 kmh 29.58 in1001.7 mb 0.00 in0.0 mm 0.00 in0.0 mm 0.00 in0.0 mm
02:10 AM 66.8°F19.3°C 39.7°F4.3°C 37% 6.0 mph NE9.7 kmh NE 16.0 mph25.7 kmh 29.58 in1001.7 mb 0.00 in0.0 mm 0.00 in0.0 mm 0.00 in0.0 mm
02:09 AM 66.8°F19.3°C 39.0°F3.9°C 36% 12.0 mph NNE19.3 kmh NNE 16.0 mph25.7 kmh 29.58 in1001.7 mb 0.00 in0.0 mm 0.00 in0.0 mm 0.00 in0.0 mm
02:08 AM 66.9°F19.4°C 39.1°F3.9°C 36% 9.0 mph NNE14.5 kmh NNE 14.0 mph22.5 kmh 29.58 in1001.7 mb 0.00 in0.0 mm 0.00 in0.0 mm 0.00 in0.0 mm
02:07 AM 66.9°F19.4°C 39.1°F3.9°C 36% 9.0 mph N14.5 kmh N 19.0 mph30.6 kmh 29.58 in1001.7 mb 0.00 in0.0 mm 0.00 in0.0 mm 0.00 in0.0 mm
02:06 AM 66.9°F19.4°C 39.1°F3.9°C 36% 10.0 mph N16.1 kmh N 19.0 mph30.6 kmh 29.58 in1001.7 mb 0.00 in0.0 mm 0.00 in0.0 mm 0.00 in0.0 mm
02:05 AM 67.0°F19.4°C 39.2°F4.0°C 36% 14.0 mph NNW22.5 kmh NNW 17.0 mph27.4 kmh 29.58 in1001.7 mb 0.00 in0.0 mm 0.00 in0.0 mm 0.00 in0.0 mm
02:04 AM 67.0°F19.4°C 39.9°F4.4°C 37% 4.0 mph NNE6.4 kmh NNE 17.0 mph27.4 kmh 29.58 in1001.7 mb 0.00 in0.0 mm 0.00 in0.0 mm 0.00 in0.0 mm
02:03 AM 67.0°F19.4°C 39.2°F4.0°C 36% 11.0 mph NNE17.7 kmh NNE 17.0 mph27.4 kmh 29.58 in1001.7 mb 0.00 in0.0 mm 0.00 in0.0 mm 0.00 in0.0 mm
02:02 AM 67.0°F19.4°C 39.2°F4.0°C 36% 9.0 mph NW14.5 kmh NW 17.0 mph27.4 kmh 29.58 in1001.7 mb 0.00 in0.0 mm 0.00 in0.0 mm 0.00 in0.0 mm
02:01 AM 67.0°F19.4°C 39.2°F4.0°C 36% 6.0 mph NNE9.7 kmh NNE 18.0 mph29.0 kmh 29.57 in1001.4 mb 0.00 in0.0 mm 0.00 in0.0 mm 0.00 in0.0 mm
01:59 AM 67.0°F19.4°C 39.2°F4.0°C 36% 9.0 mph N14.5 kmh N 18.0 mph29.0 kmh 29.57 in1001.4 mb 0.00 in0.0 mm 0.00 in0.0 mm 0.00 in0.0 mm
01:58 AM 67.0°F19.4°C 39.2°F4.0°C 36% 8.0 mph N12.9 kmh N 15.0 mph24.1 kmh 29.57 in1001.4 mb 0.00 in0.0 mm 0.00 in0.0 mm 0.00 in0.0 mm
01:56 AM 67.0°F19.4°C 39.2°F4.0°C 36% 13.0 mph NNE20.9 kmh NNE 17.0 mph27.4 kmh 29.57 in1001.4 mb 0.00 in0.0 mm 0.00 in0.0 mm 0.00 in0.0 mm
01:55 AM 67.0°F19.4°C 39.2°F4.0°C 36% 13.0 mph NNE20.9 kmh NNE 15.0 mph24.1 kmh 29.57 in1001.4 mb 0.00 in0.0 mm 0.00 in0.0 mm 0.00 in0.0 mm
01:54 AM 67.0°F19.4°C 39.9°F4.4°C 37% 10.0 mph N16.1 kmh N 16.0 mph25.7 kmh 29.57 in1001.4 mb 0.00 in0.0 mm 0.00 in0.0 mm 0.00 in0.0 mm
01:53 AM 67.0°F19.4°C 39.2°F4.0°C 36% 11.0 mph NNW17.7 kmh NNW 16.0 mph25.7 kmh 29.57 in1001.4 mb 0.00 in0.0 mm 0.00 in0.0 mm 0.00 in0.0 mm
01:52 AM 67.0°F19.4°C 39.9°F4.4°C 37% 14.0 mph N22.5 kmh N 15.0 mph24.1 kmh 29.57 in1001.4 mb 0.00 in0.0 mm 0.00 in0.0 mm 0.00 in0.0 mm
01:51 AM 67.0°F19.4°C 39.9°F4.4°C 37% 12.0 mph NE19.3 kmh NE 15.0 mph24.1 kmh 29.57 in1001.4 mb 0.00 in0.0 mm 0.00 in0.0 mm 0.00 in0.0 mm
01:50 AM 67.0°F19.4°C 39.9°F4.4°C 37% 8.0 mph NE12.9 kmh NE 15.0 mph24.1 kmh 29.57 in1001.4 mb 0.00 in0.0 mm 0.00 in0.0 mm 0.00 in0.0 mm
01:49 AM 67.0°F19.4°C 39.9°F4.4°C 37% 7.0 mph NE11.3 kmh NE 14.0 mph22.5 kmh 29.57 in1001.4 mb 0.00 in0.0 mm 0.00 in0.0 mm 0.00 in0.0 mm
01:48 AM 67.0°F19.4°C 39.9°F4.4°C 37% 6.0 mph N9.7 kmh N 10.0 mph16.1 kmh 29.57 in1001.4 mb 0.00 in0.0 mm 0.00 in0.0 mm 0.00 in0.0 mm
01:47 AM 67.0°F19.4°C 39.9°F4.4°C 37% 8.0 mph N12.9 kmh N 16.0 mph25.7 kmh 29.57 in1001.4 mb 0.00 in0.0 mm 0.00 in0.0 mm 0.00 in0.0 mm
01:46 AM 67.0°F19.4°C 39.9°F4.4°C 37% 9.0 mph NNE14.5 kmh NNE 12.0 mph19.3 kmh 29.57 in1001.4 mb 0.00 in0.0 mm 0.00 in0.0 mm 0.00 in0.0 mm
01:45 AM 67.1°F19.5°C 40.0°F4.4°C 37% 5.0 mph NNE8.0 kmh NNE 13.0 mph20.9 kmh 29.58 in1001.7 mb 0.00 in0.0 mm 0.00 in0.0 mm 0.00 in0.0 mm
01:44 AM 67.1°F19.5°C 40.0°F4.4°C 37% 7.0 mph N11.3 kmh N 13.0 mph20.9 kmh 29.58 in1001.7 mb 0.00 in0.0 mm 0.00 in0.0 mm 0.00 in0.0 mm
01:43 AM 67.1°F19.5°C 40.0°F4.4°C 37% 6.0 mph N9.7 kmh N 14.0 mph22.5 kmh 29.57 in1001.4 mb 0.00 in0.0 mm 0.00 in0.0 mm 0.00 in0.0 mm
01:42 AM 67.1°F19.5°C 40.0°F4.4°C 37% 4.0 mph N6.4 kmh N 14.0 mph22.5 kmh 29.58 in1001.7 mb 0.00 in0.0 mm 0.00 in0.0 mm 0.00 in0.0 mm
01:41 AM 67.2°F19.6°C 40.1°F4.5°C 37% 6.0 mph N9.7 kmh N 12.0 mph19.3 kmh 29.58 in1001.7 mb 0.00 in0.0 mm 0.00 in0.0 mm 0.00 in0.0 mm
01:40 AM 67.2°F19.6°C 40.1°F4.5°C 37% 7.0 mph NE11.3 kmh NE 12.0 mph19.3 kmh 29.58 in1001.7 mb 0.00 in0.0 mm 0.00 in0.0 mm 0.00 in0.0 mm
01:39 AM 67.2°F19.6°C 40.1°F4.5°C 37% 11.0 mph NW17.7 kmh NW 11.0 mph17.7 kmh 29.58 in1001.7 mb 0.00 in0.0 mm 0.00 in0.0 mm 0.00 in0.0 mm
01:38 AM 67.2°F19.6°C 40.1°F4.5°C 37% 9.0 mph N14.5 kmh N 10.0 mph16.1 kmh 29.58 in1001.7 mb 0.00 in0.0 mm 0.00 in0.0 mm 0.00 in0.0 mm
01:37 AM 67.2°F19.6°C 40.1°F4.5°C 37% 8.0 mph N12.9 kmh N 12.0 mph19.3 kmh 29.57 in1001.4 mb 0.00 in0.0 mm 0.00 in0.0 mm 0.00 in0.0 mm
01:36 AM 67.3°F19.6°C 40.2°F4.6°C 37% 10.0 mph NE16.1 kmh NE 12.0 mph19.3 kmh 29.57 in1001.4 mb 0.00 in0.0 mm 0.00 in0.0 mm 0.00 in0.0 mm
01:35 AM 67.3°F19.6°C 40.2°F4.6°C 37% 4.0 mph N6.4 kmh N 12.0 mph19.3 kmh 29.57 in1001.4 mb 0.00 in0.0 mm 0.00 in0.0 mm 0.00 in0.0 mm
01:34 AM 67.4°F19.7°C 40.3°F4.6°C 37% 5.0 mph N8.0 kmh N 10.0 mph16.1 kmh 29.57 in1001.4 mb 0.00 in0.0 mm 0.00 in0.0 mm 0.00 in0.0 mm
01:33 AM 67.4°F19.7°C 40.3°F4.6°C 37% 5.0 mph N8.0 kmh N 12.0 mph19.3 kmh 29.57 in1001.4 mb 0.00 in0.0 mm 0.00 in0.0 mm 0.00 in0.0 mm
01:32 AM 67.4°F19.7°C 40.9°F4.9°C 38% 6.0 mph NNE9.7 kmh NNE 10.0 mph16.1 kmh 29.57 in1001.4 mb 0.00 in0.0 mm 0.00 in0.0 mm 0.00 in0.0 mm
01:31 AM 67.5°F19.7°C 40.3°F4.6°C 37% 7.0 mph NNE11.3 kmh NNE 10.0 mph16.1 kmh 29.57 in1001.4 mb 0.00 in0.0 mm 0.00 in0.0 mm 0.00 in0.0 mm
01:30 AM 67.5°F19.7°C 40.3°F4.6°C 37% 5.0 mph N8.0 kmh N 9.0 mph14.5 kmh 29.57 in1001.4 mb 0.00 in0.0 mm 0.00 in0.0 mm 0.00 in0.0 mm
01:29 AM 67.6°F19.8°C 40.4°F4.7°C 37% 4.0 mph NNE6.4 kmh NNE 11.0 mph17.7 kmh 29.57 in1001.4 mb 0.00 in0.0 mm 0.00 in0.0 mm 0.00 in0.0 mm
01:28 AM 67.6°F19.8°C 40.4°F4.7°C 37% 7.0 mph N11.3 kmh N 12.0 mph19.3 kmh 29.57 in1001.4 mb 0.00 in0.0 mm 0.00 in0.0 mm 0.00 in0.0 mm
01:27 AM 67.6°F19.8°C 40.4°F4.7°C 37% 7.0 mph NNE11.3 kmh NNE 12.0 mph19.3 kmh 29.57 in1001.4 mb 0.00 in0.0 mm 0.00 in0.0 mm 0.00 in0.0 mm
01:26 AM 67.7°F19.8°C 41.2°F5.1°C 38% 6.0 mph N9.7 kmh N 9.0 mph14.5 kmh 29.57 in1001.4 mb 0.00 in0.0 mm 0.00 in0.0 mm 0.00 in0.0 mm
01:25 AM 67.7°F19.8°C 40.5°F4.7°C 37% 9.0 mph N14.5 kmh N 10.0 mph16.1 kmh 29.57 in1001.4 mb 0.00 in0.0 mm 0.00 in0.0 mm 0.00 in0.0 mm
01:24 AM 67.7°F19.8°C 40.5°F4.7°C 37% 6.0 mph NE9.7 kmh NE 11.0 mph17.7 kmh 29.57 in1001.4 mb 0.00 in0.0 mm 0.00 in0.0 mm 0.00 in0.0 mm
01:23 AM 67.7°F19.8°C 40.5°F4.7°C 37% 7.0 mph N11.3 kmh N 10.0 mph16.1 kmh 29.57 in1001.4 mb 0.00 in0.0 mm 0.00 in0.0 mm 0.00 in0.0 mm
01:22 AM 67.8°F19.9°C 40.6°F4.8°C 37% 3.0 mph NE4.8 kmh NE 11.0 mph17.7 kmh 29.57 in1001.4 mb 0.00 in0.0 mm 0.00 in0.0 mm 0.00 in0.0 mm
01:21 AM 67.8°F19.9°C 40.6°F4.8°C 37% 4.0 mph NE6.4 kmh NE 11.0 mph17.7 kmh 29.57 in1001.4 mb 0.00 in0.0 mm 0.00 in0.0 mm 0.00 in0.0 mm
01:20 AM 67.8°F19.9°C 40.6°F4.8°C 37% 3.0 mph NNE4.8 kmh NNE 10.0 mph16.1 kmh 29.57 in1001.4 mb 0.00 in0.0 mm 0.00 in0.0 mm 0.00 in0.0 mm
01:19 AM 67.8°F19.9°C 40.6°F4.8°C 37% 5.0 mph NNE8.0 kmh NNE 12.0 mph19.3 kmh 29.57 in1001.4 mb 0.00 in0.0 mm 0.00 in0.0 mm 0.00 in0.0 mm
01:18 AM 67.9°F19.9°C 40.7°F4.8°C 37% 9.0 mph NE14.5 kmh NE 13.0 mph20.9 kmh 29.57 in1001.4 mb 0.00 in0.0 mm 0.00 in0.0 mm 0.00 in0.0 mm
01:17 AM 67.9°F19.9°C 40.7°F4.8°C 37% 6.0 mph N9.7 kmh N 13.0 mph20.9 kmh 29.57 in1001.4 mb 0.00 in0.0 mm 0.00 in0.0 mm 0.00 in0.0 mm
01:16 AM 67.9°F19.9°C 40.7°F4.8°C 37% 8.0 mph N12.9 kmh N 13.0 mph20.9 kmh 29.57 in1001.4 mb 0.00 in0.0 mm 0.00 in0.0 mm 0.00 in0.0 mm
01:15 AM 68.0°F20.0°C 41.5°F5.3°C 38% 8.0 mph N12.9 kmh N 14.0 mph22.5 kmh 29.57 in1001.4 mb 0.00 in0.0 mm 0.00 in0.0 mm 0.00 in0.0 mm
01:14 AM 68.0°F20.0°C 41.5°F5.3°C 38% 5.0 mph NNE8.0 kmh NNE 14.0 mph22.5 kmh 29.57 in1001.4 mb 0.00 in0.0 mm 0.00 in0.0 mm 0.00 in0.0 mm
01:13 AM 68.1°F20.1°C 41.6°F5.3°C 38% 10.0 mph N16.1 kmh N 10.0 mph16.1 kmh 29.57 in1001.4 mb 0.00 in0.0 mm 0.00 in0.0 mm 0.00 in0.0 mm
01:12 AM 68.1°F20.1°C 41.6°F5.3°C 38% 4.0 mph N6.4 kmh N 11.0 mph17.7 kmh 29.57 in1001.4 mb 0.00 in0.0 mm 0.00 in0.0 mm 0.00 in0.0 mm
01:11 AM 68.2°F20.1°C 41.7°F5.4°C 38% 7.0 mph N11.3 kmh N 12.0 mph19.3 kmh 29.57 in1001.4 mb 0.00 in0.0 mm 0.00 in0.0 mm 0.00 in0.0 mm
01:10 AM 68.2°F20.1°C 41.7°F5.4°C 38% 5.0 mph N8.0 kmh N 11.0 mph17.7 kmh 29.57 in1001.4 mb 0.00 in0.0 mm 0.00 in0.0 mm 0.00 in0.0 mm
01:09 AM 68.3°F20.2°C 41.7°F5.4°C 38% 9.0 mph N14.5 kmh N 12.0 mph19.3 kmh 29.57 in1001.4 mb 0.00 in0.0 mm 0.00 in0.0 mm 0.00 in0.0 mm
01:08 AM 68.3°F20.2°C 41.7°F5.4°C 38% 6.0 mph NNE9.7 kmh NNE 13.0 mph20.9 kmh 29.57 in1001.4 mb 0.00 in0.0 mm 0.00 in0.0 mm 0.00 in0.0 mm
01:07 AM 68.4°F20.2°C 41.8°F5.4°C 38% 6.0 mph N9.7 kmh N 10.0 mph16.1 kmh 29.57 in1001.4 mb 0.00 in0.0 mm 0.00 in0.0 mm 0.00 in0.0 mm
01:06 AM 68.4°F20.2°C 41.8°F5.4°C 38% 10.0 mph NE16.1 kmh NE 13.0 mph20.9 kmh 29.56 in1001.0 mb 0.00 in0.0 mm 0.00 in0.0 mm 0.00 in0.0 mm
01:05 AM 68.5°F20.3°C 41.9°F5.5°C 38% 3.0 mph NE4.8 kmh NE 12.0 mph19.3 kmh 29.56 in1001.0 mb 0.00 in0.0 mm 0.00 in0.0 mm 0.00 in0.0 mm
01:04 AM 68.5°F20.3°C 41.9°F5.5°C 38% 6.0 mph N9.7 kmh N 13.0 mph20.9 kmh 29.56 in1001.0 mb 0.00 in0.0 mm 0.00 in0.0 mm 0.00 in0.0 mm
01:03 AM 68.6°F20.3°C 42.0°F5.6°C 38% 8.0 mph N12.9 kmh N 13.0 mph20.9 kmh 29.56 in1001.0 mb 0.00 in0.0 mm 0.00 in0.0 mm 0.00 in0.0 mm
01:02 AM 68.6°F20.3°C 42.0°F5.6°C 38% 4.0 mph NNE6.4 kmh NNE 12.0 mph19.3 kmh 29.56 in1001.0 mb 0.00 in0.0 mm 0.00 in0.0 mm 0.00 in0.0 mm
01:01 AM 68.7°F20.4°C 42.1°F5.6°C 38% 11.0 mph NNW17.7 kmh NNW 11.0 mph17.7 kmh 29.56 in1001.0 mb 0.00 in0.0 mm 0.00 in0.0 mm 0.00 in0.0 mm
01:00 AM 68.8°F20.4°C 42.2°F5.7°C 38% 9.0 mph NE14.5 kmh NE 11.0 mph17.7 kmh 29.56 in1001.0 mb 0.00 in0.0 mm 0.00 in0.0 mm 0.00 in0.0 mm
12:59 AM 68.8°F20.4°C 42.2°F5.7°C 38% 8.0 mph N12.9 kmh N 13.0 mph20.9 kmh 29.56 in1001.0 mb 0.00 in0.0 mm 0.00 in0.0 mm 0.00 in0.0 mm
12:58 AM 68.9°F20.5°C 42.3°F5.7°C 38% 7.0 mph NE11.3 kmh NE 13.0 mph20.9 kmh 29.56 in1001.0 mb 0.00 in0.0 mm 0.00 in0.0 mm 0.00 in0.0 mm
12:57 AM 69.0°F20.6°C 42.4°F5.8°C 38% 6.0 mph N9.7 kmh N 10.0 mph16.1 kmh 29.56 in1001.0 mb 0.00 in0.0 mm 0.00 in0.0 mm 0.00 in0.0 mm
12:56 AM 69.0°F20.6°C 42.4°F5.8°C 38% 9.0 mph N14.5 kmh N 10.0 mph16.1 kmh 29.56 in1001.0 mb 0.00 in0.0 mm 0.00 in0.0 mm 0.00 in0.0 mm
12:55 AM 69.1°F20.6°C 42.5°F5.8°C 38% 2.0 mph N3.2 kmh N 11.0 mph17.7 kmh 29.56 in1001.0 mb 0.00 in0.0 mm 0.00 in0.0 mm 0.00 in0.0 mm
12:54 AM 69.1°F20.6°C 42.5°F5.8°C 38% 11.0 mph N17.7 kmh N 11.0 mph17.7 kmh 29.56 in1001.0 mb 0.00 in0.0 mm 0.00 in0.0 mm 0.00 in0.0 mm
12:53 AM 69.2°F20.7°C 42.5°F5.8°C 38% 3.0 mph NNE4.8 kmh NNE 12.0 mph19.3 kmh 29.56 in1001.0 mb 0.00 in0.0 mm 0.00 in0.0 mm 0.00 in0.0 mm
12:52 AM 69.2°F20.7°C 42.5°F5.8°C 38% 4.0 mph NE6.4 kmh NE 16.0 mph25.7 kmh 29.56 in1001.0 mb 0.00 in0.0 mm 0.00 in0.0 mm 0.00 in0.0 mm
12:51 AM 69.2°F20.7°C 42.5°F5.8°C 38% 10.0 mph NNE16.1 kmh NNE 16.0 mph25.7 kmh 29.56 in1001.0 mb 0.00 in0.0 mm 0.00 in0.0 mm 0.00 in0.0 mm
12:50 AM 69.3°F20.7°C 42.6°F5.9°C 38% 7.0 mph NNE11.3 kmh NNE 13.0 mph20.9 kmh 29.56 in1001.0 mb 0.00 in0.0 mm 0.00 in0.0 mm 0.00 in0.0 mm
12:49 AM 69.3°F20.7°C 42.6°F5.9°C 38% 8.0 mph NE12.9 kmh NE 13.0 mph20.9 kmh 29.56 in1001.0 mb 0.00 in0.0 mm 0.00 in0.0 mm 0.00 in0.0 mm
12:48 AM 69.3°F20.7°C 42.6°F5.9°C 38% 11.0 mph NNE17.7 kmh NNE 15.0 mph24.1 kmh 29.56 in1001.0 mb 0.00 in0.0 mm 0.00 in0.0 mm 0.00 in0.0 mm
12:47 AM 69.4°F20.8°C 43.4°F6.3°C 39% 11.0 mph NNE17.7 kmh NNE 15.0 mph24.1 kmh 29.56 in1001.0 mb 0.00 in0.0 mm 0.00 in0.0 mm 0.00 in0.0 mm
12:46 AM 69.4°F20.8°C 43.4°F6.3°C 39% 11.0 mph N17.7 kmh N 12.0 mph19.3 kmh 29.56 in1001.0 mb 0.00 in0.0 mm 0.00 in0.0 mm 0.00 in0.0 mm
12:45 AM 69.5°F20.8°C 44.2°F6.8°C 40% 9.0 mph N14.5 kmh N 12.0 mph19.3 kmh 29.56 in1001.0 mb 0.00 in0.0 mm 0.00 in0.0 mm 0.00 in0.0 mm
12:44 AM 69.6°F20.9°C 44.2°F6.8°C 40% 6.0 mph NNE9.7 kmh NNE 13.0 mph20.9 kmh 29.56 in1001.0 mb 0.00 in0.0 mm 0.00 in0.0 mm 0.00 in0.0 mm
12:43 AM 69.7°F20.9°C 44.3°F6.8°C 40% 11.0 mph NE17.7 kmh NE 13.0 mph20.9 kmh 29.56 in1001.0 mb 0.00 in0.0 mm 0.00 in0.0 mm 0.00 in0.0 mm
12:42 AM 69.7°F20.9°C 44.3°F6.8°C 40% 5.0 mph N8.0 kmh N 10.0 mph16.1 kmh 29.55 in1000.7 mb 0.00 in0.0 mm 0.00 in0.0 mm 0.00 in0.0 mm
12:41 AM 69.8°F21.0°C 44.4°F6.9°C 40% 10.0 mph N16.1 kmh N 11.0 mph17.7 kmh 29.55 in1000.7 mb 0.00 in0.0 mm 0.00 in0.0 mm 0.00 in0.0 mm
12:40 AM 69.8°F21.0°C 43.8°F6.6°C 39% 6.0 mph NNE9.7 kmh NNE 12.0 mph19.3 kmh 29.55 in1000.7 mb 0.00 in0.0 mm 0.00 in0.0 mm 0.00 in0.0 mm
12:39 AM 69.9°F21.1°C 43.8°F6.6°C 39% 7.0 mph NNE11.3 kmh NNE 16.0 mph25.7 kmh 29.55 in1000.7 mb 0.00 in0.0 mm 0.00 in0.0 mm 0.00 in0.0 mm
12:38 AM 70.0°F21.1°C 43.9°F6.6°C 39% 15.0 mph NE24.1 kmh NE 15.0 mph24.1 kmh 29.55 in1000.7 mb 0.00 in0.0 mm 0.00 in0.0 mm 0.00 in0.0 mm
12:37 AM 70.0°F21.1°C 43.9°F6.6°C 39% 7.0 mph NNE11.3 kmh NNE 12.0 mph19.3 kmh 29.55 in1000.7 mb 0.00 in0.0 mm 0.00 in0.0 mm 0.00 in0.0 mm
12:36 AM 70.1°F21.2°C 44.0°F6.7°C 39% 10.0 mph N16.1 kmh N 13.0 mph20.9 kmh 29.56 in1001.0 mb 0.00 in0.0 mm 0.00 in0.0 mm 0.00 in0.0 mm
12:35 AM 70.2°F21.2°C 44.1°F6.7°C 39% 12.0 mph NE19.3 kmh NE 13.0 mph20.9 kmh 29.55 in1000.7 mb 0.00 in0.0 mm 0.00 in0.0 mm 0.00 in0.0 mm
12:34 AM 70.2°F21.2°C 44.1°F6.7°C 39% 7.0 mph NE11.3 kmh NE 11.0 mph17.7 kmh 29.55 in1000.7 mb 0.00 in0.0 mm 0.00 in0.0 mm 0.00 in0.0 mm
12:33 AM 70.3°F21.3°C 44.2°F6.8°C 39% 4.0 mph NNE6.4 kmh NNE 12.0 mph19.3 kmh 29.55 in1000.7 mb 0.00 in0.0 mm 0.00 in0.0 mm 0.00 in0.0 mm
12:32 AM 70.3°F21.3°C 44.2°F6.8°C 39% 5.0 mph N8.0 kmh N 17.0 mph27.4 kmh 29.55 in1000.7 mb 0.00 in0.0 mm 0.00 in0.0 mm 0.00 in0.0 mm
12:31 AM 70.4°F21.3°C 44.3°F6.8°C 39% 17.0 mph N27.4 kmh N 18.0 mph29.0 kmh 29.55 in1000.7 mb 0.00 in0.0 mm 0.00 in0.0 mm 0.00 in0.0 mm
12:30 AM 70.4°F21.3°C 43.6°F6.4°C 38% 10.0 mph N16.1 kmh N 18.0 mph29.0 kmh 29.55 in1000.7 mb 0.00 in0.0 mm 0.00 in0.0 mm 0.00 in0.0 mm
12:29 AM 70.5°F21.4°C 43.7°F6.5°C 38% 7.0 mph N11.3 kmh N 15.0 mph24.1 kmh 29.55 in1000.7 mb 0.00 in0.0 mm 0.00 in0.0 mm 0.00 in0.0 mm
12:28 AM 70.6°F21.4°C 44.5°F6.9°C 39% 14.0 mph N22.5 kmh N 15.0 mph24.1 kmh 29.55 in1000.7 mb 0.00 in0.0 mm 0.00 in0.0 mm 0.00 in0.0 mm
12:27 AM 70.7°F21.5°C 43.9°F6.6°C 38% 3.0 mph NE4.8 kmh NE 14.0 mph22.5 kmh 29.55 in1000.7 mb 0.00 in0.0 mm 0.00 in0.0 mm 0.00 in0.0 mm
12:26 AM 70.7°F21.5°C 43.9°F6.6°C 38% 8.0 mph NNW12.9 kmh NNW 14.0 mph22.5 kmh 29.55 in1000.7 mb 0.00 in0.0 mm 0.00 in0.0 mm 0.00 in0.0 mm
12:25 AM 70.8°F21.6°C 44.0°F6.7°C 38% 8.0 mph NE12.9 kmh NE 15.0 mph24.1 kmh 29.55 in1000.7 mb 0.00 in0.0 mm 0.00 in0.0 mm 0.00 in0.0 mm
12:24 AM 70.8°F21.6°C 44.0°F6.7°C 38% 5.0 mph N8.0 kmh N 15.0 mph24.1 kmh 29.55 in1000.7 mb 0.00 in0.0 mm 0.00 in0.0 mm 0.00 in0.0 mm
12:23 AM 70.9°F21.6°C 44.1°F6.7°C 38% 6.0 mph N9.7 kmh N 10.0 mph16.1 kmh 29.54 in1000.3 mb 0.00 in0.0 mm 0.00 in0.0 mm 0.00 in0.0 mm
12:22 AM 71.0°F21.7°C 44.1°F6.7°C 38% 9.0 mph NE14.5 kmh NE 9.0 mph14.5 kmh 29.54 in1000.3 mb 0.00 in0.0 mm 0.00 in0.0 mm 0.00 in0.0 mm
12:21 AM 71.0°F21.7°C 44.1°F6.7°C 38% 5.0 mph NE8.0 kmh NE 11.0 mph17.7 kmh 29.54 in1000.3 mb 0.00 in0.0 mm 0.00 in0.0 mm 0.00 in0.0 mm
12:20 AM 71.1°F21.7°C 43.5°F6.4°C 37% 11.0 mph N17.7 kmh N 13.0 mph20.9 kmh 29.54 in1000.3 mb 0.00 in0.0 mm 0.00 in0.0 mm 0.00 in0.0 mm
12:19 AM 71.2°F21.8°C 43.6°F6.4°C 37% 6.0 mph NNE9.7 kmh NNE 13.0 mph20.9 kmh 29.54 in1000.3 mb 0.00 in0.0 mm 0.00 in0.0 mm 0.00 in0.0 mm
12:18 AM 71.3°F21.8°C 43.7°F6.5°C 37% 7.0 mph N11.3 kmh N 11.0 mph17.7 kmh 29.54 in1000.3 mb 0.00 in0.0 mm 0.00 in0.0 mm 0.00 in0.0 mm
12:17 AM 71.3°F21.8°C 43.7°F6.5°C 37% 6.0 mph N9.7 kmh N 8.0 mph12.9 kmh 29.54 in1000.3 mb 0.00 in0.0 mm 0.00 in0.0 mm 0.00 in0.0 mm
12:16 AM 71.4°F21.9°C 43.8°F6.6°C 37% 5.0 mph NE8.0 kmh NE 11.0 mph17.7 kmh 29.54 in1000.3 mb 0.00 in0.0 mm 0.00 in0.0 mm 0.00 in0.0 mm
12:15 AM 71.5°F21.9°C 43.9°F6.6°C 37% 5.0 mph NE8.0 kmh NE 11.0 mph17.7 kmh 29.54 in1000.3 mb 0.00 in0.0 mm 0.00 in0.0 mm 0.00 in0.0 mm
12:14 AM 71.5°F21.9°C 43.9°F6.6°C 37% 9.0 mph NNE14.5 kmh NNE 14.0 mph22.5 kmh 29.54 in1000.3 mb 0.00 in0.0 mm 0.00 in0.0 mm 0.00 in0.0 mm
12:13 AM 71.5°F21.9°C 43.9°F6.6°C 37% 9.0 mph N14.5 kmh N 13.0 mph20.9 kmh 29.53 in1000.0 mb 0.00 in0.0 mm 0.00 in0.0 mm 0.00 in0.0 mm
12:12 AM 71.6°F22.0°C 43.3°F6.3°C 36% 13.0 mph N20.9 kmh N 13.0 mph20.9 kmh 29.54 in1000.3 mb 0.00 in0.0 mm 0.00 in0.0 mm 0.00 in0.0 mm
12:11 AM 71.6°F22.0°C 44.0°F6.7°C 37% 7.0 mph NE11.3 kmh NE 11.0 mph17.7 kmh 29.53 in1000.0 mb 0.00 in0.0 mm 0.00 in0.0 mm 0.00 in0.0 mm
12:10 AM 71.7°F22.1°C 43.4°F6.3°C 36% 10.0 mph NE16.1 kmh NE 11.0 mph17.7 kmh 29.53 in1000.0 mb 0.00 in0.0 mm 0.00 in0.0 mm 0.00 in0.0 mm
12:09 AM 71.7°F22.1°C 44.1°F6.7°C 37% 3.0 mph N4.8 kmh N 13.0 mph20.9 kmh 29.54 in1000.3 mb 0.00 in0.0 mm 0.00 in0.0 mm 0.00 in0.0 mm
12:08 AM 71.8°F22.1°C 43.4°F6.3°C 36% 8.0 mph N12.9 kmh N 14.0 mph22.5 kmh 29.53 in1000.0 mb 0.00 in0.0 mm 0.00 in0.0 mm 0.00 in0.0 mm
12:07 AM 71.9°F22.2°C 43.5°F6.4°C 36% 5.0 mph N8.0 kmh N 14.0 mph22.5 kmh 29.53 in1000.0 mb 0.00 in0.0 mm 0.00 in0.0 mm 0.00 in0.0 mm
12:06 AM 71.9°F22.2°C 43.5°F6.4°C 36% 5.0 mph NNE8.0 kmh NNE 14.0 mph22.5 kmh 29.53 in1000.0 mb 0.00 in0.0 mm 0.00 in0.0 mm 0.00 in0.0 mm
12:05 AM 72.0°F22.2°C 43.6°F6.4°C 36% 7.0 mph N11.3 kmh N 14.0 mph22.5 kmh 29.53 in1000.0 mb 0.00 in0.0 mm 0.00 in0.0 mm 0.00 in0.0 mm
12:04 AM 72.0°F22.2°C 43.6°F6.4°C 36% 12.0 mph N19.3 kmh N 13.0 mph20.9 kmh 29.53 in1000.0 mb 0.00 in0.0 mm 0.00 in0.0 mm 0.00 in0.0 mm
12:03 AM 72.1°F22.3°C 43.7°F6.5°C 36% 12.0 mph NE19.3 kmh NE 14.0 mph22.5 kmh 29.53 in1000.0 mb 0.00 in0.0 mm 0.00 in0.0 mm 0.00 in0.0 mm
12:02 AM 72.2°F22.3°C 43.8°F6.6°C 36% 2.0 mph N3.2 kmh N 14.0 mph22.5 kmh 29.53 in1000.0 mb 0.00 in0.0 mm 0.00 in0.0 mm 0.00 in0.0 mm
12:01 AM 72.2°F22.3°C 43.8°F6.6°C 36% 8.0 mph NNE12.9 kmh NNE 12.0 mph19.3 kmh 29.53 in1000.0 mb 0.00 in0.0 mm 0.00 in0.0 mm 0.00 in0.0 mm
12:00 AM 72.3°F22.4°C 43.9°F6.6°C 36% 10.0 mph NE16.1 kmh NE 12.0 mph19.3 kmh 29.53 in1000.0 mb 0.00 in0.0 mm 0.00 in0.0 mm 0.00 in0.0 mm